<?xml version="1.0" encoding="UTF-8" standalone="no" ?><gpx xmlns="http://www.topografix.com/GPX/1/1" xmlns:gpxx="http://www.garmin.com/xmlschemas/GpxExtensions/v3" xmlns:gpxtpx="http://www.garmin.com/xmlschemas/TrackPointExtension/v1" creator="Foretrex 301" version="1.1" xmlns:xsi="http://www.w3.org/2001/XMLSchema-instance" xsi:schemaLocation="http://www.topografix.com/GPX/1/1 http://www.topografix.com/GPX/1/1/gpx.xsd http://www.garmin.com/xmlschemas/GpxExtensions/v3 http://www.garmin.com/xmlschemas/GpxExtensions/v3/GpxExtensionsv3.xsd"><metadata><link href="http://www.garmin.com"><text>Garmin International</text></link><time>2011-07-13T18:52:45Z</time></metadata><trk><name>ACTIVE LOG: 13 JUL 2011 08:57</name><trkseg><trkpt lat="51.943466" lon="-2.017905"><ele>262.58</ele><time>2011-07-13T08:57:36Z</time></trkpt><trkpt lat="51.943474" lon="-2.017884"><ele>262.10</ele><time>2011-07-13T08:59:02Z</time></trkpt><trkpt lat="51.943523" lon="-2.017868"><ele>261.14</ele><time>2011-07-13T08:59:08Z</time></trkpt><trkpt lat="51.943579" lon="-2.017846"><ele>261.14</ele><time>2011-07-13T08:59:13Z</time></trkpt><trkpt lat="51.943704" lon="-2.017689"><ele>259.21</ele><time>2011-07-13T08:59:24Z</time></trkpt><trkpt lat="51.943802" lon="-2.017517"><ele>257.29</ele><time>2011-07-13T08:59:38Z</time></trkpt><trkpt lat="51.943882" lon="-2.017326"><ele>257.29</ele><time>2011-07-13T08:59:52Z</time></trkpt><trkpt lat="51.943921" lon="-2.017180"><ele>256.33</ele><time>2011-07-13T09:00:01Z</time></trkpt><trkpt lat="51.943994" lon="-2.017134"><ele>257.77</ele><time>2011-07-13T09:00:11Z</time></trkpt><trkpt lat="51.944057" lon="-2.017164"><ele>261.14</ele><time>2011-07-13T09:00:21Z</time></trkpt><trkpt lat="51.944163" lon="-2.017153"><ele>264.02</ele><time>2011-07-13T09:00:32Z</time></trkpt><trkpt lat="51.944274" lon="-2.017119"><ele>265.94</ele><time>2011-07-13T09:00:43Z</time></trkpt><trkpt lat="51.944329" lon="-2.017103"><ele>265.46</ele><time>2011-07-13T09:00:50Z</time></trkpt><trkpt lat="51.944427" lon="-2.017084"><ele>265.94</ele><time>2011-07-13T09:01:00Z</time></trkpt><trkpt lat="51.944519" lon="-2.017053"><ele>264.98</ele><time>2011-07-13T09:01:08Z</time></trkpt><trkpt lat="51.944609" lon="-2.017036"><ele>263.54</ele><time>2011-07-13T09:01:17Z</time></trkpt><trkpt lat="51.944696" lon="-2.017008"><ele>263.06</ele><time>2011-07-13T09:01:25Z</time></trkpt><trkpt lat="51.944726" lon="-2.016977"><ele>261.62</ele><time>2011-07-13T09:01:35Z</time></trkpt><trkpt lat="51.944700" lon="-2.016972"><ele>261.14</ele><time>2011-07-13T09:01:42Z</time></trkpt><trkpt lat="51.944648" lon="-2.016932"><ele>259.69</ele><time>2011-07-13T09:01:49Z</time></trkpt><trkpt lat="51.944563" lon="-2.016869"><ele>260.65</ele><time>2011-07-13T09:01:57Z</time></trkpt><trkpt lat="51.944520" lon="-2.016873"><ele>261.14</ele><time>2011-07-13T09:02:03Z</time></trkpt><trkpt lat="51.944485" lon="-2.016897"><ele>262.10</ele><time>2011-07-13T09:02:09Z</time></trkpt><trkpt lat="51.944447" lon="-2.016909"><ele>263.06</ele><time>2011-07-13T09:02:14Z</time></trkpt><trkpt lat="51.944338" lon="-2.016938"><ele>265.94</ele><time>2011-07-13T09:02:26Z</time></trkpt><trkpt lat="51.944239" lon="-2.016952"><ele>267.86</ele><time>2011-07-13T09:02:36Z</time></trkpt><trkpt lat="51.944117" lon="-2.016945"><ele>269.31</ele><time>2011-07-13T09:02:47Z</time></trkpt><trkpt lat="51.944020" lon="-2.016947"><ele>268.35</ele><time>2011-07-13T09:02:56Z</time></trkpt><trkpt lat="51.943963" lon="-2.017025"><ele>269.79</ele><time>2011-07-13T09:03:07Z</time></trkpt><trkpt lat="51.943834" lon="-2.017009"><ele>268.35</ele><time>2011-07-13T09:03:18Z</time></trkpt><trkpt lat="51.943733" lon="-2.017044"><ele>266.90</ele><time>2011-07-13T09:03:28Z</time></trkpt><trkpt lat="51.943655" lon="-2.017062"><ele>263.54</ele><time>2011-07-13T09:03:37Z</time></trkpt><trkpt lat="51.943599" lon="-2.017095"><ele>262.58</ele><time>2011-07-13T09:03:46Z</time></trkpt><trkpt lat="51.943588" lon="-2.017094"><ele>262.58</ele><time>2011-07-13T09:03:47Z</time></trkpt><trkpt lat="51.943484" lon="-2.017107"><ele>262.58</ele><time>2011-07-13T09:03:56Z</time></trkpt><trkpt lat="51.943380" lon="-2.017130"><ele>261.14</ele><time>2011-07-13T09:04:06Z</time></trkpt><trkpt lat="51.943246" lon="-2.017152"><ele>261.62</ele><time>2011-07-13T09:04:18Z</time></trkpt><trkpt lat="51.943203" lon="-2.017129"><ele>262.58</ele><time>2011-07-13T09:04:25Z</time></trkpt><trkpt lat="51.943172" lon="-2.017035"><ele>263.54</ele><time>2011-07-13T09:04:34Z</time></trkpt><trkpt lat="51.943225" lon="-2.016959"><ele>265.46</ele><time>2011-07-13T09:04:43Z</time></trkpt><trkpt lat="51.943229" lon="-2.016960"><ele>265.46</ele><time>2011-07-13T09:04:49Z</time></trkpt><trkpt lat="51.943219" lon="-2.016910"><ele>265.94</ele><time>2011-07-13T09:04:55Z</time></trkpt><trkpt lat="51.943280" lon="-2.016755"><ele>265.46</ele><time>2011-07-13T09:05:06Z</time></trkpt><trkpt lat="51.943357" lon="-2.016487"><ele>264.50</ele><time>2011-07-13T09:05:22Z</time></trkpt><trkpt lat="51.943395" lon="-2.016240"><ele>264.02</ele><time>2011-07-13T09:05:36Z</time></trkpt><trkpt lat="51.943419" lon="-2.016009"><ele>264.02</ele><time>2011-07-13T09:05:49Z</time></trkpt><trkpt lat="51.943443" lon="-2.015757"><ele>264.50</ele><time>2011-07-13T09:06:03Z</time></trkpt><trkpt lat="51.943481" lon="-2.015456"><ele>264.50</ele><time>2011-07-13T09:06:20Z</time></trkpt><trkpt lat="51.943513" lon="-2.015357"><ele>264.50</ele><time>2011-07-13T09:06:30Z</time></trkpt><trkpt lat="51.943539" lon="-2.015228"><ele>264.98</ele><time>2011-07-13T09:06:40Z</time></trkpt><trkpt lat="51.943546" lon="-2.015087"><ele>264.50</ele><time>2011-07-13T09:06:50Z</time></trkpt><trkpt lat="51.943565" lon="-2.015015"><ele>264.02</ele><time>2011-07-13T09:06:58Z</time></trkpt><trkpt lat="51.943611" lon="-2.014900"><ele>264.02</ele><time>2011-07-13T09:07:08Z</time></trkpt><trkpt lat="51.943615" lon="-2.014833"><ele>264.02</ele><time>2011-07-13T09:07:17Z</time></trkpt><trkpt lat="51.943616" lon="-2.014837"><ele>263.54</ele><time>2011-07-13T09:07:22Z</time></trkpt><trkpt lat="51.943680" lon="-2.014586"><ele>262.10</ele><time>2011-07-13T09:07:36Z</time></trkpt><trkpt lat="51.943767" lon="-2.014325"><ele>263.06</ele><time>2011-07-13T09:07:50Z</time></trkpt><trkpt lat="51.943826" lon="-2.014083"><ele>264.50</ele><time>2011-07-13T09:08:03Z</time></trkpt><trkpt lat="51.943862" lon="-2.013832"><ele>264.02</ele><time>2011-07-13T09:08:17Z</time></trkpt><trkpt lat="51.943867" lon="-2.013726"><ele>264.50</ele><time>2011-07-13T09:08:22Z</time></trkpt><trkpt lat="51.943861" lon="-2.013645"><ele>264.50</ele><time>2011-07-13T09:08:26Z</time></trkpt><trkpt lat="51.943874" lon="-2.013473"><ele>264.50</ele><time>2011-07-13T09:08:35Z</time></trkpt><trkpt lat="51.943875" lon="-2.013371"><ele>264.02</ele><time>2011-07-13T09:08:41Z</time></trkpt><trkpt lat="51.943895" lon="-2.013136"><ele>262.58</ele><time>2011-07-13T09:08:53Z</time></trkpt><trkpt lat="51.943903" lon="-2.012802"><ele>261.14</ele><time>2011-07-13T09:09:10Z</time></trkpt><trkpt lat="51.943907" lon="-2.012555"><ele>259.69</ele><time>2011-07-13T09:09:24Z</time></trkpt><trkpt lat="51.943911" lon="-2.012230"><ele>257.77</ele><time>2011-07-13T09:09:41Z</time></trkpt><trkpt lat="51.943909" lon="-2.011942"><ele>256.81</ele><time>2011-07-13T09:09:56Z</time></trkpt><trkpt lat="51.943901" lon="-2.011713"><ele>254.41</ele><time>2011-07-13T09:10:08Z</time></trkpt><trkpt lat="51.943901" lon="-2.011406"><ele>253.93</ele><time>2011-07-13T09:10:24Z</time></trkpt><trkpt lat="51.943925" lon="-2.011025"><ele>253.93</ele><time>2011-07-13T09:10:44Z</time></trkpt><trkpt lat="51.943925" lon="-2.010765"><ele>253.93</ele><time>2011-07-13T09:10:58Z</time></trkpt><trkpt lat="51.943919" lon="-2.010481"><ele>253.93</ele><time>2011-07-13T09:11:13Z</time></trkpt><trkpt lat="51.943922" lon="-2.010331"><ele>252.96</ele><time>2011-07-13T09:11:21Z</time></trkpt><trkpt lat="51.943915" lon="-2.010045"><ele>251.52</ele><time>2011-07-13T09:11:36Z</time></trkpt><trkpt lat="51.943916" lon="-2.009792"><ele>250.08</ele><time>2011-07-13T09:11:50Z</time></trkpt><trkpt lat="51.943914" lon="-2.009444"><ele>247.20</ele><time>2011-07-13T09:12:08Z</time></trkpt><trkpt lat="51.943914" lon="-2.009176"><ele>245.27</ele><time>2011-07-13T09:12:21Z</time></trkpt><trkpt lat="51.943929" lon="-2.008936"><ele>244.31</ele><time>2011-07-13T09:12:34Z</time></trkpt><trkpt lat="51.943931" lon="-2.008805"><ele>244.79</ele><time>2011-07-13T09:12:43Z</time></trkpt><trkpt lat="51.943921" lon="-2.008601"><ele>244.31</ele><time>2011-07-13T09:12:56Z</time></trkpt><trkpt lat="51.943929" lon="-2.008564"><ele>244.31</ele><time>2011-07-13T09:13:03Z</time></trkpt><trkpt lat="51.943917" lon="-2.008496"><ele>243.83</ele><time>2011-07-13T09:13:08Z</time></trkpt><trkpt lat="51.943928" lon="-2.008334"><ele>242.39</ele><time>2011-07-13T09:13:17Z</time></trkpt><trkpt lat="51.943930" lon="-2.008319"><ele>242.39</ele><time>2011-07-13T09:13:18Z</time></trkpt><trkpt lat="51.943931" lon="-2.008255"><ele>241.91</ele><time>2011-07-13T09:13:22Z</time></trkpt><trkpt lat="51.943936" lon="-2.008055"><ele>239.99</ele><time>2011-07-13T09:13:35Z</time></trkpt><trkpt lat="51.943949" lon="-2.007843"><ele>240.47</ele><time>2011-07-13T09:13:47Z</time></trkpt><trkpt lat="51.943955" lon="-2.007515"><ele>238.54</ele><time>2011-07-13T09:14:05Z</time></trkpt><trkpt lat="51.943952" lon="-2.007271"><ele>236.62</ele><time>2011-07-13T09:14:19Z</time></trkpt><trkpt lat="51.943951" lon="-2.007033"><ele>234.70</ele><time>2011-07-13T09:14:33Z</time></trkpt><trkpt lat="51.943955" lon="-2.006849"><ele>233.74</ele><time>2011-07-13T09:14:45Z</time></trkpt><trkpt lat="51.943962" lon="-2.006736"><ele>233.26</ele><time>2011-07-13T09:14:52Z</time></trkpt><trkpt lat="51.943959" lon="-2.006539"><ele>231.33</ele><time>2011-07-13T09:15:04Z</time></trkpt><trkpt lat="51.943956" lon="-2.006326"><ele>230.37</ele><time>2011-07-13T09:15:16Z</time></trkpt><trkpt lat="51.943965" lon="-2.006185"><ele>230.85</ele><time>2011-07-13T09:15:24Z</time></trkpt><trkpt lat="51.943961" lon="-2.006063"><ele>230.85</ele><time>2011-07-13T09:15:32Z</time></trkpt><trkpt lat="51.943969" lon="-2.005909"><ele>230.85</ele><time>2011-07-13T09:15:41Z</time></trkpt><trkpt lat="51.944007" lon="-2.005730"><ele>230.37</ele><time>2011-07-13T09:15:52Z</time></trkpt><trkpt lat="51.944029" lon="-2.005687"><ele>228.93</ele><time>2011-07-13T09:15:57Z</time></trkpt><trkpt lat="51.944123" lon="-2.005658"><ele>228.45</ele><time>2011-07-13T09:16:09Z</time></trkpt><trkpt lat="51.944260" lon="-2.005615"><ele>228.93</ele><time>2011-07-13T09:16:24Z</time></trkpt><trkpt lat="51.944417" lon="-2.005557"><ele>228.45</ele><time>2011-07-13T09:16:40Z</time></trkpt><trkpt lat="51.944550" lon="-2.005517"><ele>227.97</ele><time>2011-07-13T09:16:53Z</time></trkpt><trkpt lat="51.944666" lon="-2.005477"><ele>227.01</ele><time>2011-07-13T09:17:05Z</time></trkpt><trkpt lat="51.944791" lon="-2.005436"><ele>226.05</ele><time>2011-07-13T09:17:17Z</time></trkpt><trkpt lat="51.944907" lon="-2.005363"><ele>223.64</ele><time>2011-07-13T09:17:28Z</time></trkpt><trkpt lat="51.944999" lon="-2.005317"><ele>223.16</ele><time>2011-07-13T09:17:36Z</time></trkpt><trkpt lat="51.945153" lon="-2.005243"><ele>220.28</ele><time>2011-07-13T09:17:51Z</time></trkpt><trkpt lat="51.945215" lon="-2.005215"><ele>217.88</ele><time>2011-07-13T09:17:57Z</time></trkpt><trkpt lat="51.945332" lon="-2.005181"><ele>217.40</ele><time>2011-07-13T09:18:09Z</time></trkpt><trkpt lat="51.945460" lon="-2.005126"><ele>216.43</ele><time>2011-07-13T09:18:22Z</time></trkpt><trkpt lat="51.945540" lon="-2.005107"><ele>216.43</ele><time>2011-07-13T09:18:30Z</time></trkpt><trkpt lat="51.945623" lon="-2.005069"><ele>216.43</ele><time>2011-07-13T09:18:39Z</time></trkpt><trkpt lat="51.945713" lon="-2.005019"><ele>215.95</ele><time>2011-07-13T09:18:49Z</time></trkpt><trkpt lat="51.945804" lon="-2.004970"><ele>215.47</ele><time>2011-07-13T09:18:58Z</time></trkpt><trkpt lat="51.945902" lon="-2.004901"><ele>215.47</ele><time>2011-07-13T09:19:08Z</time></trkpt><trkpt lat="51.945995" lon="-2.004807"><ele>214.99</ele><time>2011-07-13T09:19:19Z</time></trkpt><trkpt lat="51.946073" lon="-2.004722"><ele>214.51</ele><time>2011-07-13T09:19:28Z</time></trkpt><trkpt lat="51.946150" lon="-2.004644"><ele>213.07</ele><time>2011-07-13T09:19:37Z</time></trkpt><trkpt lat="51.946220" lon="-2.004569"><ele>212.59</ele><time>2011-07-13T09:19:46Z</time></trkpt><trkpt lat="51.946279" lon="-2.004482"><ele>212.59</ele><time>2011-07-13T09:19:54Z</time></trkpt><trkpt lat="51.946377" lon="-2.004379"><ele>211.63</ele><time>2011-07-13T09:20:05Z</time></trkpt><trkpt lat="51.946445" lon="-2.004311"><ele>210.19</ele><time>2011-07-13T09:20:13Z</time></trkpt><trkpt lat="51.946504" lon="-2.004241"><ele>209.70</ele><time>2011-07-13T09:20:21Z</time></trkpt><trkpt lat="51.946580" lon="-2.004146"><ele>208.26</ele><time>2011-07-13T09:20:30Z</time></trkpt><trkpt lat="51.946651" lon="-2.004075"><ele>207.30</ele><time>2011-07-13T09:20:38Z</time></trkpt><trkpt lat="51.946732" lon="-2.003992"><ele>206.82</ele><time>2011-07-13T09:20:47Z</time></trkpt><trkpt lat="51.946811" lon="-2.003911"><ele>206.34</ele><time>2011-07-13T09:20:56Z</time></trkpt><trkpt lat="51.946903" lon="-2.003831"><ele>205.86</ele><time>2011-07-13T09:21:05Z</time></trkpt><trkpt lat="51.946983" lon="-2.003733"><ele>205.86</ele><time>2011-07-13T09:21:15Z</time></trkpt><trkpt lat="51.947077" lon="-2.003641"><ele>205.38</ele><time>2011-07-13T09:21:25Z</time></trkpt><trkpt lat="51.947162" lon="-2.003549"><ele>204.42</ele><time>2011-07-13T09:21:34Z</time></trkpt><trkpt lat="51.947266" lon="-2.003481"><ele>202.98</ele><time>2011-07-13T09:21:44Z</time></trkpt><trkpt lat="51.947368" lon="-2.003440"><ele>201.53</ele><time>2011-07-13T09:21:54Z</time></trkpt><trkpt lat="51.947482" lon="-2.003420"><ele>200.57</ele><time>2011-07-13T09:22:05Z</time></trkpt><trkpt lat="51.947553" lon="-2.003449"><ele>199.13</ele><time>2011-07-13T09:22:13Z</time></trkpt><trkpt lat="51.947669" lon="-2.003522"><ele>198.17</ele><time>2011-07-13T09:22:24Z</time></trkpt><trkpt lat="51.947756" lon="-2.003578"><ele>197.69</ele><time>2011-07-13T09:22:32Z</time></trkpt><trkpt lat="51.947834" lon="-2.003613"><ele>195.77</ele><time>2011-07-13T09:22:40Z</time></trkpt><trkpt lat="51.947909" lon="-2.003661"><ele>194.32</ele><time>2011-07-13T09:22:49Z</time></trkpt><trkpt lat="51.947993" lon="-2.003708"><ele>193.36</ele><time>2011-07-13T09:22:58Z</time></trkpt><trkpt lat="51.948102" lon="-2.003760"><ele>193.36</ele><time>2011-07-13T09:23:08Z</time></trkpt><trkpt lat="51.948159" lon="-2.003781"><ele>194.32</ele><time>2011-07-13T09:23:14Z</time></trkpt><trkpt lat="51.948232" lon="-2.003856"><ele>194.32</ele><time>2011-07-13T09:23:22Z</time></trkpt><trkpt lat="51.948331" lon="-2.003987"><ele>194.80</ele><time>2011-07-13T09:23:32Z</time></trkpt><trkpt lat="51.948396" lon="-2.004113"><ele>193.36</ele><time>2011-07-13T09:23:41Z</time></trkpt><trkpt lat="51.948451" lon="-2.004227"><ele>192.40</ele><time>2011-07-13T09:23:49Z</time></trkpt><trkpt lat="51.948499" lon="-2.004337"><ele>191.92</ele><time>2011-07-13T09:23:58Z</time></trkpt><trkpt lat="51.948572" lon="-2.004405"><ele>191.44</ele><time>2011-07-13T09:24:06Z</time></trkpt><trkpt lat="51.948639" lon="-2.004447"><ele>191.44</ele><time>2011-07-13T09:24:13Z</time></trkpt><trkpt lat="51.948715" lon="-2.004505"><ele>190.00</ele><time>2011-07-13T09:24:21Z</time></trkpt><trkpt lat="51.948807" lon="-2.004592"><ele>188.08</ele><time>2011-07-13T09:24:32Z</time></trkpt><trkpt lat="51.948885" lon="-2.004723"><ele>186.15</ele><time>2011-07-13T09:24:42Z</time></trkpt><trkpt lat="51.948897" lon="-2.004782"><ele>186.15</ele><time>2011-07-13T09:24:49Z</time></trkpt><trkpt lat="51.948915" lon="-2.004808"><ele>185.67</ele><time>2011-07-13T09:24:56Z</time></trkpt><trkpt lat="51.948913" lon="-2.004844"><ele>185.67</ele><time>2011-07-13T09:24:59Z</time></trkpt><trkpt lat="51.948896" lon="-2.005018"><ele>184.71</ele><time>2011-07-13T09:25:11Z</time></trkpt><trkpt lat="51.948890" lon="-2.005188"><ele>182.31</ele><time>2011-07-13T09:25:23Z</time></trkpt><trkpt lat="51.948865" lon="-2.005334"><ele>181.83</ele><time>2011-07-13T09:25:34Z</time></trkpt><trkpt lat="51.948855" lon="-2.005406"><ele>181.35</ele><time>2011-07-13T09:25:44Z</time></trkpt><trkpt lat="51.948859" lon="-2.005432"><ele>181.83</ele><time>2011-07-13T09:25:52Z</time></trkpt><trkpt lat="51.948859" lon="-2.005439"><ele>182.31</ele><time>2011-07-13T09:25:53Z</time></trkpt><trkpt lat="51.948919" lon="-2.005521"><ele>183.27</ele><time>2011-07-13T09:26:01Z</time></trkpt><trkpt lat="51.948923" lon="-2.005526"><ele>183.75</ele><time>2011-07-13T09:26:10Z</time></trkpt><trkpt lat="51.948904" lon="-2.005571"><ele>184.23</ele><time>2011-07-13T09:26:22Z</time></trkpt><trkpt lat="51.948883" lon="-2.005657"><ele>184.71</ele><time>2011-07-13T09:26:28Z</time></trkpt><trkpt lat="51.948933" lon="-2.005782"><ele>183.75</ele><time>2011-07-13T09:26:36Z</time></trkpt><trkpt lat="51.949026" lon="-2.005838"><ele>183.27</ele><time>2011-07-13T09:26:44Z</time></trkpt><trkpt lat="51.949077" lon="-2.005868"><ele>183.27</ele><time>2011-07-13T09:26:53Z</time></trkpt><trkpt lat="51.949174" lon="-2.005883"><ele>181.83</ele><time>2011-07-13T09:27:03Z</time></trkpt><trkpt lat="51.949243" lon="-2.005901"><ele>180.87</ele><time>2011-07-13T09:27:11Z</time></trkpt><trkpt lat="51.949304" lon="-2.005909"><ele>180.38</ele><time>2011-07-13T09:27:17Z</time></trkpt><trkpt lat="51.949365" lon="-2.005922"><ele>179.90</ele><time>2011-07-13T09:27:23Z</time></trkpt><trkpt lat="51.949440" lon="-2.005941"><ele>179.90</ele><time>2011-07-13T09:27:30Z</time></trkpt><trkpt lat="51.949540" lon="-2.005965"><ele>178.94</ele><time>2011-07-13T09:27:40Z</time></trkpt><trkpt lat="51.949619" lon="-2.005986"><ele>177.50</ele><time>2011-07-13T09:27:48Z</time></trkpt><trkpt lat="51.949732" lon="-2.006005"><ele>176.06</ele><time>2011-07-13T09:27:58Z</time></trkpt><trkpt lat="51.949844" lon="-2.006023"><ele>174.62</ele><time>2011-07-13T09:28:08Z</time></trkpt><trkpt lat="51.949974" lon="-2.006030"><ele>173.66</ele><time>2011-07-13T09:28:21Z</time></trkpt><trkpt lat="51.950154" lon="-2.006053"><ele>172.21</ele><time>2011-07-13T09:28:38Z</time></trkpt><trkpt lat="51.950406" lon="-2.006080"><ele>167.41</ele><time>2011-07-13T09:29:02Z</time></trkpt><trkpt lat="51.950528" lon="-2.006092"><ele>165.00</ele><time>2011-07-13T09:29:14Z</time></trkpt><trkpt lat="51.950595" lon="-2.006123"><ele>163.56</ele><time>2011-07-13T09:29:20Z</time></trkpt><trkpt lat="51.950677" lon="-2.006145"><ele>162.60</ele><time>2011-07-13T09:29:27Z</time></trkpt><trkpt lat="51.950791" lon="-2.006169"><ele>162.12</ele><time>2011-07-13T09:29:37Z</time></trkpt><trkpt lat="51.950889" lon="-2.006186"><ele>161.16</ele><time>2011-07-13T09:29:46Z</time></trkpt><trkpt lat="51.951000" lon="-2.006193"><ele>160.20</ele><time>2011-07-13T09:29:56Z</time></trkpt><trkpt lat="51.951100" lon="-2.006140"><ele>159.24</ele><time>2011-07-13T09:30:05Z</time></trkpt><trkpt lat="51.951186" lon="-2.006022"><ele>158.27</ele><time>2011-07-13T09:30:14Z</time></trkpt><trkpt lat="51.951241" lon="-2.005929"><ele>157.79</ele><time>2011-07-13T09:30:21Z</time></trkpt><trkpt lat="51.951295" lon="-2.005807"><ele>156.83</ele><time>2011-07-13T09:30:30Z</time></trkpt><trkpt lat="51.951339" lon="-2.005731"><ele>156.83</ele><time>2011-07-13T09:30:37Z</time></trkpt><trkpt lat="51.951391" lon="-2.005606"><ele>156.35</ele><time>2011-07-13T09:30:46Z</time></trkpt><trkpt lat="51.951428" lon="-2.005512"><ele>156.83</ele><time>2011-07-13T09:30:53Z</time></trkpt><trkpt lat="51.951427" lon="-2.005503"><ele>156.83</ele><time>2011-07-13T09:31:03Z</time></trkpt><trkpt lat="51.951480" lon="-2.005469"><ele>157.31</ele><time>2011-07-13T09:31:10Z</time></trkpt><trkpt lat="51.951578" lon="-2.005376"><ele>157.31</ele><time>2011-07-13T09:31:20Z</time></trkpt><trkpt lat="51.951686" lon="-2.005284"><ele>157.31</ele><time>2011-07-13T09:31:31Z</time></trkpt><trkpt lat="51.951744" lon="-2.005232"><ele>157.31</ele><time>2011-07-13T09:31:37Z</time></trkpt><trkpt lat="51.951841" lon="-2.005159"><ele>156.83</ele><time>2011-07-13T09:31:46Z</time></trkpt><trkpt lat="51.951932" lon="-2.005125"><ele>157.31</ele><time>2011-07-13T09:31:55Z</time></trkpt><trkpt lat="51.952023" lon="-2.005112"><ele>157.79</ele><time>2011-07-13T09:32:03Z</time></trkpt><trkpt lat="51.952127" lon="-2.005116"><ele>158.27</ele><time>2011-07-13T09:32:13Z</time></trkpt><trkpt lat="51.952260" lon="-2.005121"><ele>158.75</ele><time>2011-07-13T09:32:25Z</time></trkpt><trkpt lat="51.952351" lon="-2.005176"><ele>159.72</ele><time>2011-07-13T09:32:35Z</time></trkpt><trkpt lat="51.952434" lon="-2.005245"><ele>159.72</ele><time>2011-07-13T09:32:44Z</time></trkpt><trkpt lat="51.952527" lon="-2.005317"><ele>159.72</ele><time>2011-07-13T09:32:54Z</time></trkpt><trkpt lat="51.952623" lon="-2.005370"><ele>160.20</ele><time>2011-07-13T09:33:04Z</time></trkpt><trkpt lat="51.952671" lon="-2.005374"><ele>160.20</ele><time>2011-07-13T09:33:11Z</time></trkpt><trkpt lat="51.952684" lon="-2.005365"><ele>160.68</ele><time>2011-07-13T09:33:16Z</time></trkpt><trkpt lat="51.952690" lon="-2.005354"><ele>158.75</ele><time>2011-07-13T09:33:25Z</time></trkpt><trkpt lat="51.952784" lon="-2.005407"><ele>160.68</ele><time>2011-07-13T09:33:34Z</time></trkpt><trkpt lat="51.952866" lon="-2.005515"><ele>162.12</ele><time>2011-07-13T09:33:44Z</time></trkpt><trkpt lat="51.952886" lon="-2.005540"><ele>163.08</ele><time>2011-07-13T09:33:50Z</time></trkpt><trkpt lat="51.952920" lon="-2.005631"><ele>163.08</ele><time>2011-07-13T09:33:58Z</time></trkpt><trkpt lat="51.953004" lon="-2.005765"><ele>163.56</ele><time>2011-07-13T09:34:08Z</time></trkpt><trkpt lat="51.953024" lon="-2.005786"><ele>163.56</ele><time>2011-07-13T09:34:10Z</time></trkpt><trkpt lat="51.953091" lon="-2.005858"><ele>164.04</ele><time>2011-07-13T09:34:18Z</time></trkpt><trkpt lat="51.953103" lon="-2.005847"><ele>163.08</ele><time>2011-07-13T09:34:37Z</time></trkpt><trkpt lat="51.953102" lon="-2.005842"><ele>161.64</ele><time>2011-07-13T09:34:47Z</time></trkpt><trkpt lat="51.953153" lon="-2.005856"><ele>162.12</ele><time>2011-07-13T09:34:53Z</time></trkpt><trkpt lat="51.953216" lon="-2.005935"><ele>164.04</ele><time>2011-07-13T09:35:03Z</time></trkpt><trkpt lat="51.953264" lon="-2.005992"><ele>164.52</ele><time>2011-07-13T09:35:09Z</time></trkpt><trkpt lat="51.953343" lon="-2.006114"><ele>165.00</ele><time>2011-07-13T09:35:21Z</time></trkpt><trkpt lat="51.953351" lon="-2.006122"><ele>165.00</ele><time>2011-07-13T09:35:22Z</time></trkpt><trkpt lat="51.953423" lon="-2.006165"><ele>165.48</ele><time>2011-07-13T09:35:30Z</time></trkpt><trkpt lat="51.953517" lon="-2.006243"><ele>166.45</ele><time>2011-07-13T09:35:41Z</time></trkpt><trkpt lat="51.953603" lon="-2.006334"><ele>167.41</ele><time>2011-07-13T09:35:51Z</time></trkpt><trkpt lat="51.953665" lon="-2.006405"><ele>167.89</ele><time>2011-07-13T09:35:59Z</time></trkpt><trkpt lat="51.953699" lon="-2.006447"><ele>167.89</ele><time>2011-07-13T09:36:04Z</time></trkpt><trkpt lat="51.953739" lon="-2.006490"><ele>168.37</ele><time>2011-07-13T09:36:09Z</time></trkpt><trkpt lat="51.953809" lon="-2.006584"><ele>168.85</ele><time>2011-07-13T09:36:18Z</time></trkpt><trkpt lat="51.953872" lon="-2.006683"><ele>169.81</ele><time>2011-07-13T09:36:27Z</time></trkpt><trkpt lat="51.953931" lon="-2.006795"><ele>170.29</ele><time>2011-07-13T09:36:36Z</time></trkpt><trkpt lat="51.953989" lon="-2.006904"><ele>170.29</ele><time>2011-07-13T09:36:45Z</time></trkpt><trkpt lat="51.954036" lon="-2.007017"><ele>170.29</ele><time>2011-07-13T09:36:54Z</time></trkpt><trkpt lat="51.954037" lon="-2.007028"><ele>170.29</ele><time>2011-07-13T09:36:55Z</time></trkpt><trkpt lat="51.954063" lon="-2.007115"><ele>170.29</ele><time>2011-07-13T09:37:04Z</time></trkpt><trkpt lat="51.954091" lon="-2.007172"><ele>169.33</ele><time>2011-07-13T09:37:10Z</time></trkpt><trkpt lat="51.954125" lon="-2.007212"><ele>169.81</ele><time>2011-07-13T09:37:15Z</time></trkpt><trkpt lat="51.954197" lon="-2.007346"><ele>171.25</ele><time>2011-07-13T09:37:25Z</time></trkpt><trkpt lat="51.954257" lon="-2.007461"><ele>171.25</ele><time>2011-07-13T09:37:34Z</time></trkpt><trkpt lat="51.954301" lon="-2.007569"><ele>171.73</ele><time>2011-07-13T09:37:42Z</time></trkpt><trkpt lat="51.954318" lon="-2.007611"><ele>172.21</ele><time>2011-07-13T09:37:45Z</time></trkpt><trkpt lat="51.954375" lon="-2.007740"><ele>172.69</ele><time>2011-07-13T09:37:55Z</time></trkpt><trkpt lat="51.954428" lon="-2.007865"><ele>173.17</ele><time>2011-07-13T09:38:04Z</time></trkpt><trkpt lat="51.954483" lon="-2.008002"><ele>173.17</ele><time>2011-07-13T09:38:14Z</time></trkpt><trkpt lat="51.954515" lon="-2.008086"><ele>173.17</ele><time>2011-07-13T09:38:21Z</time></trkpt><trkpt lat="51.954536" lon="-2.008198"><ele>173.66</ele><time>2011-07-13T09:38:29Z</time></trkpt><trkpt lat="51.954543" lon="-2.008327"><ele>174.14</ele><time>2011-07-13T09:38:37Z</time></trkpt><trkpt lat="51.954567" lon="-2.008500"><ele>174.62</ele><time>2011-07-13T09:38:48Z</time></trkpt><trkpt lat="51.954610" lon="-2.008638"><ele>174.62</ele><time>2011-07-13T09:38:58Z</time></trkpt><trkpt lat="51.954650" lon="-2.008715"><ele>174.62</ele><time>2011-07-13T09:39:05Z</time></trkpt><trkpt lat="51.954708" lon="-2.008837"><ele>174.62</ele><time>2011-07-13T09:39:14Z</time></trkpt><trkpt lat="51.954750" lon="-2.008955"><ele>174.62</ele><time>2011-07-13T09:39:23Z</time></trkpt><trkpt lat="51.954787" lon="-2.009051"><ele>174.62</ele><time>2011-07-13T09:39:30Z</time></trkpt><trkpt lat="51.954827" lon="-2.009161"><ele>175.10</ele><time>2011-07-13T09:39:38Z</time></trkpt><trkpt lat="51.954869" lon="-2.009271"><ele>175.10</ele><time>2011-07-13T09:39:46Z</time></trkpt><trkpt lat="51.954874" lon="-2.009283"><ele>175.10</ele><time>2011-07-13T09:39:47Z</time></trkpt><trkpt lat="51.954927" lon="-2.009376"><ele>175.10</ele><time>2011-07-13T09:39:55Z</time></trkpt><trkpt lat="51.954988" lon="-2.009479"><ele>175.58</ele><time>2011-07-13T09:40:04Z</time></trkpt><trkpt lat="51.955043" lon="-2.009569"><ele>176.06</ele><time>2011-07-13T09:40:12Z</time></trkpt><trkpt lat="51.955113" lon="-2.009612"><ele>177.02</ele><time>2011-07-13T09:40:19Z</time></trkpt><trkpt lat="51.955183" lon="-2.009606"><ele>177.50</ele><time>2011-07-13T09:40:26Z</time></trkpt><trkpt lat="51.955252" lon="-2.009577"><ele>177.02</ele><time>2011-07-13T09:40:34Z</time></trkpt><trkpt lat="51.955313" lon="-2.009583"><ele>177.02</ele><time>2011-07-13T09:40:42Z</time></trkpt><trkpt lat="51.955361" lon="-2.009621"><ele>177.02</ele><time>2011-07-13T09:40:49Z</time></trkpt><trkpt lat="51.955439" lon="-2.009731"><ele>177.50</ele><time>2011-07-13T09:40:58Z</time></trkpt><trkpt lat="51.955473" lon="-2.009852"><ele>177.98</ele><time>2011-07-13T09:41:06Z</time></trkpt><trkpt lat="51.955486" lon="-2.010004"><ele>177.50</ele><time>2011-07-13T09:41:16Z</time></trkpt><trkpt lat="51.955490" lon="-2.010146"><ele>176.54</ele><time>2011-07-13T09:41:25Z</time></trkpt><trkpt lat="51.955498" lon="-2.010283"><ele>176.54</ele><time>2011-07-13T09:41:34Z</time></trkpt><trkpt lat="51.955531" lon="-2.010379"><ele>176.06</ele><time>2011-07-13T09:41:41Z</time></trkpt><trkpt lat="51.955572" lon="-2.010503"><ele>176.06</ele><time>2011-07-13T09:41:50Z</time></trkpt><trkpt lat="51.955602" lon="-2.010582"><ele>177.02</ele><time>2011-07-13T09:41:56Z</time></trkpt><trkpt lat="51.955625" lon="-2.010655"><ele>176.54</ele><time>2011-07-13T09:42:02Z</time></trkpt><trkpt lat="51.955660" lon="-2.010781"><ele>176.06</ele><time>2011-07-13T09:42:11Z</time></trkpt><trkpt lat="51.955694" lon="-2.010869"><ele>175.10</ele><time>2011-07-13T09:42:18Z</time></trkpt><trkpt lat="51.955783" lon="-2.010950"><ele>173.17</ele><time>2011-07-13T09:42:28Z</time></trkpt><trkpt lat="51.955864" lon="-2.010970"><ele>172.69</ele><time>2011-07-13T09:42:37Z</time></trkpt><trkpt lat="51.955949" lon="-2.010976"><ele>170.77</ele><time>2011-07-13T09:42:46Z</time></trkpt><trkpt lat="51.956018" lon="-2.010986"><ele>168.85</ele><time>2011-07-13T09:42:56Z</time></trkpt><trkpt lat="51.956020" lon="-2.010990"><ele>168.37</ele><time>2011-07-13T09:42:57Z</time></trkpt><trkpt lat="51.956010" lon="-2.011023"><ele>168.37</ele><time>2011-07-13T09:43:01Z</time></trkpt><trkpt lat="51.955990" lon="-2.011170"><ele>167.41</ele><time>2011-07-13T09:43:12Z</time></trkpt><trkpt lat="51.956001" lon="-2.011189"><ele>167.41</ele><time>2011-07-13T09:43:28Z</time></trkpt><trkpt lat="51.956007" lon="-2.011187"><ele>167.41</ele><time>2011-07-13T09:43:47Z</time></trkpt><trkpt lat="51.956008" lon="-2.011197"><ele>166.93</ele><time>2011-07-13T09:44:14Z</time></trkpt><trkpt lat="51.956069" lon="-2.011387"><ele>166.93</ele><time>2011-07-13T09:44:25Z</time></trkpt><trkpt lat="51.956099" lon="-2.011506"><ele>166.45</ele><time>2011-07-13T09:44:33Z</time></trkpt><trkpt lat="51.956140" lon="-2.011634"><ele>167.41</ele><time>2011-07-13T09:44:43Z</time></trkpt><trkpt lat="51.956168" lon="-2.011711"><ele>167.89</ele><time>2011-07-13T09:44:49Z</time></trkpt><trkpt lat="51.956232" lon="-2.011847"><ele>168.85</ele><time>2011-07-13T09:44:59Z</time></trkpt><trkpt lat="51.956280" lon="-2.011945"><ele>168.85</ele><time>2011-07-13T09:45:07Z</time></trkpt><trkpt lat="51.956332" lon="-2.012062"><ele>168.85</ele><time>2011-07-13T09:45:16Z</time></trkpt><trkpt lat="51.956345" lon="-2.012083"><ele>168.85</ele><time>2011-07-13T09:45:18Z</time></trkpt><trkpt lat="51.956390" lon="-2.012176"><ele>168.85</ele><time>2011-07-13T09:45:26Z</time></trkpt><trkpt lat="51.956429" lon="-2.012278"><ele>168.85</ele><time>2011-07-13T09:45:33Z</time></trkpt><trkpt lat="51.956503" lon="-2.012431"><ele>168.37</ele><time>2011-07-13T09:45:45Z</time></trkpt><trkpt lat="51.956549" lon="-2.012532"><ele>168.37</ele><time>2011-07-13T09:45:52Z</time></trkpt><trkpt lat="51.956613" lon="-2.012687"><ele>168.37</ele><time>2011-07-13T09:46:03Z</time></trkpt><trkpt lat="51.956684" lon="-2.012821"><ele>167.89</ele><time>2011-07-13T09:46:13Z</time></trkpt><trkpt lat="51.956752" lon="-2.012951"><ele>168.37</ele><time>2011-07-13T09:46:23Z</time></trkpt><trkpt lat="51.956802" lon="-2.013066"><ele>167.89</ele><time>2011-07-13T09:46:32Z</time></trkpt><trkpt lat="51.956844" lon="-2.013153"><ele>166.93</ele><time>2011-07-13T09:46:41Z</time></trkpt><trkpt lat="51.956846" lon="-2.013178"><ele>166.45</ele><time>2011-07-13T09:46:48Z</time></trkpt><trkpt lat="51.956840" lon="-2.013192"><ele>166.45</ele><time>2011-07-13T09:46:53Z</time></trkpt><trkpt lat="51.956840" lon="-2.013178"><ele>166.45</ele><time>2011-07-13T09:46:56Z</time></trkpt><trkpt lat="51.956893" lon="-2.013221"><ele>166.45</ele><time>2011-07-13T09:47:02Z</time></trkpt><trkpt lat="51.956926" lon="-2.013258"><ele>165.96</ele><time>2011-07-13T09:47:06Z</time></trkpt><trkpt lat="51.957041" lon="-2.013405"><ele>164.52</ele><time>2011-07-13T09:47:18Z</time></trkpt><trkpt lat="51.957126" lon="-2.013501"><ele>164.04</ele><time>2011-07-13T09:47:28Z</time></trkpt><trkpt lat="51.957205" lon="-2.013574"><ele>164.04</ele><time>2011-07-13T09:47:38Z</time></trkpt><trkpt lat="51.957269" lon="-2.013641"><ele>163.56</ele><time>2011-07-13T09:47:46Z</time></trkpt><trkpt lat="51.957345" lon="-2.013734"><ele>162.60</ele><time>2011-07-13T09:47:56Z</time></trkpt><trkpt lat="51.957422" lon="-2.013825"><ele>161.64</ele><time>2011-07-13T09:48:07Z</time></trkpt><trkpt lat="51.957494" lon="-2.013906"><ele>160.68</ele><time>2011-07-13T09:48:17Z</time></trkpt><trkpt lat="51.957559" lon="-2.013995"><ele>160.20</ele><time>2011-07-13T09:48:27Z</time></trkpt><trkpt lat="51.957623" lon="-2.014080"><ele>159.72</ele><time>2011-07-13T09:48:36Z</time></trkpt><trkpt lat="51.957681" lon="-2.014153"><ele>158.27</ele><time>2011-07-13T09:48:45Z</time></trkpt><trkpt lat="51.957747" lon="-2.014217"><ele>157.79</ele><time>2011-07-13T09:48:54Z</time></trkpt><trkpt lat="51.957810" lon="-2.014270"><ele>155.87</ele><time>2011-07-13T09:49:03Z</time></trkpt><trkpt lat="51.957855" lon="-2.014316"><ele>154.43</ele><time>2011-07-13T09:49:11Z</time></trkpt><trkpt lat="51.957922" lon="-2.014343"><ele>152.99</ele><time>2011-07-13T09:49:19Z</time></trkpt><trkpt lat="51.957988" lon="-2.014376"><ele>151.54</ele><time>2011-07-13T09:49:27Z</time></trkpt><trkpt lat="51.958037" lon="-2.014401"><ele>152.03</ele><time>2011-07-13T09:49:34Z</time></trkpt><trkpt lat="51.958107" lon="-2.014413"><ele>152.99</ele><time>2011-07-13T09:49:42Z</time></trkpt><trkpt lat="51.958171" lon="-2.014408"><ele>154.91</ele><time>2011-07-13T09:49:50Z</time></trkpt><trkpt lat="51.958178" lon="-2.014404"><ele>154.43</ele><time>2011-07-13T09:49:51Z</time></trkpt><trkpt lat="51.958258" lon="-2.014356"><ele>152.51</ele><time>2011-07-13T09:50:01Z</time></trkpt><trkpt lat="51.958311" lon="-2.014345"><ele>152.99</ele><time>2011-07-13T09:50:08Z</time></trkpt><trkpt lat="51.958398" lon="-2.014354"><ele>150.58</ele><time>2011-07-13T09:50:18Z</time></trkpt><trkpt lat="51.958469" lon="-2.014380"><ele>148.18</ele><time>2011-07-13T09:50:26Z</time></trkpt><trkpt lat="51.958543" lon="-2.014393"><ele>147.70</ele><time>2011-07-13T09:50:34Z</time></trkpt><trkpt lat="51.958643" lon="-2.014382"><ele>145.78</ele><time>2011-07-13T09:50:45Z</time></trkpt><trkpt lat="51.958737" lon="-2.014370"><ele>142.89</ele><time>2011-07-13T09:50:57Z</time></trkpt><trkpt lat="51.958807" lon="-2.014389"><ele>143.37</ele><time>2011-07-13T09:51:07Z</time></trkpt><trkpt lat="51.958878" lon="-2.014422"><ele>144.34</ele><time>2011-07-13T09:51:16Z</time></trkpt><trkpt lat="51.958951" lon="-2.014464"><ele>144.82</ele><time>2011-07-13T09:51:25Z</time></trkpt><trkpt lat="51.959009" lon="-2.014504"><ele>145.78</ele><time>2011-07-13T09:51:33Z</time></trkpt><trkpt lat="51.959094" lon="-2.014558"><ele>146.26</ele><time>2011-07-13T09:51:45Z</time></trkpt><trkpt lat="51.959163" lon="-2.014585"><ele>146.74</ele><time>2011-07-13T09:51:51Z</time></trkpt><trkpt lat="51.959252" lon="-2.014568"><ele>145.78</ele><time>2011-07-13T09:52:02Z</time></trkpt><trkpt lat="51.959363" lon="-2.014593"><ele>147.70</ele><time>2011-07-13T09:52:24Z</time></trkpt><trkpt lat="51.959428" lon="-2.014606"><ele>148.66</ele><time>2011-07-13T09:52:30Z</time></trkpt><trkpt lat="51.959502" lon="-2.014641"><ele>149.62</ele><time>2011-07-13T09:52:37Z</time></trkpt><trkpt lat="51.959617" lon="-2.014739"><ele>150.58</ele><time>2011-07-13T09:52:47Z</time></trkpt><trkpt lat="51.959705" lon="-2.014822"><ele>151.54</ele><time>2011-07-13T09:52:55Z</time></trkpt><trkpt lat="51.959803" lon="-2.014906"><ele>150.58</ele><time>2011-07-13T09:53:05Z</time></trkpt><trkpt lat="51.959886" lon="-2.014978"><ele>148.66</ele><time>2011-07-13T09:53:16Z</time></trkpt><trkpt lat="51.959962" lon="-2.015048"><ele>146.74</ele><time>2011-07-13T09:53:26Z</time></trkpt><trkpt lat="51.960028" lon="-2.015121"><ele>145.30</ele><time>2011-07-13T09:53:34Z</time></trkpt><trkpt lat="51.960090" lon="-2.015183"><ele>146.26</ele><time>2011-07-13T09:53:41Z</time></trkpt><trkpt lat="51.960135" lon="-2.015232"><ele>145.78</ele><time>2011-07-13T09:53:52Z</time></trkpt><trkpt lat="51.960088" lon="-2.015182"><ele>142.89</ele><time>2011-07-13T09:54:09Z</time></trkpt><trkpt lat="51.960099" lon="-2.015195"><ele>141.45</ele><time>2011-07-13T09:54:32Z</time></trkpt><trkpt lat="51.960131" lon="-2.015235"><ele>140.49</ele><time>2011-07-13T09:54:45Z</time></trkpt><trkpt lat="51.960136" lon="-2.015215"><ele>140.01</ele><time>2011-07-13T09:54:59Z</time></trkpt><trkpt lat="51.960140" lon="-2.015197"><ele>140.49</ele><time>2011-07-13T09:55:12Z</time></trkpt><trkpt lat="51.960165" lon="-2.015204"><ele>138.57</ele><time>2011-07-13T09:57:04Z</time></trkpt><trkpt lat="51.960164" lon="-2.015205"><ele>138.57</ele><time>2011-07-13T09:58:38Z</time></trkpt><trkpt lat="51.960162" lon="-2.015207"><ele>138.09</ele><time>2011-07-13T10:00:14Z</time></trkpt><trkpt lat="51.960161" lon="-2.015210"><ele>138.09</ele><time>2011-07-13T10:02:49Z</time></trkpt><trkpt lat="51.960170" lon="-2.015227"><ele>138.57</ele><time>2011-07-13T10:05:39Z</time></trkpt><trkpt lat="51.960173" lon="-2.015231"><ele>139.05</ele><time>2011-07-13T10:06:47Z</time></trkpt><trkpt lat="51.960202" lon="-2.015303"><ele>139.53</ele><time>2011-07-13T10:09:21Z</time></trkpt><trkpt lat="51.960295" lon="-2.015415"><ele>138.09</ele><time>2011-07-13T10:09:37Z</time></trkpt><trkpt lat="51.960356" lon="-2.015442"><ele>138.09</ele><time>2011-07-13T10:09:46Z</time></trkpt><trkpt lat="51.960419" lon="-2.015475"><ele>137.61</ele><time>2011-07-13T10:09:55Z</time></trkpt><trkpt lat="51.960498" lon="-2.015506"><ele>137.61</ele><time>2011-07-13T10:10:05Z</time></trkpt><trkpt lat="51.960556" lon="-2.015532"><ele>138.09</ele><time>2011-07-13T10:10:13Z</time></trkpt><trkpt lat="51.960653" lon="-2.015553"><ele>137.61</ele><time>2011-07-13T10:10:24Z</time></trkpt><trkpt lat="51.960755" lon="-2.015582"><ele>138.09</ele><time>2011-07-13T10:10:37Z</time></trkpt><trkpt lat="51.960820" lon="-2.015616"><ele>138.57</ele><time>2011-07-13T10:10:46Z</time></trkpt><trkpt lat="51.960918" lon="-2.015678"><ele>138.57</ele><time>2011-07-13T10:10:59Z</time></trkpt><trkpt lat="51.961013" lon="-2.015740"><ele>139.05</ele><time>2011-07-13T10:11:11Z</time></trkpt><trkpt lat="51.961089" lon="-2.015796"><ele>138.57</ele><time>2011-07-13T10:11:21Z</time></trkpt><trkpt lat="51.961178" lon="-2.015885"><ele>138.09</ele><time>2011-07-13T10:11:33Z</time></trkpt><trkpt lat="51.961248" lon="-2.015965"><ele>137.61</ele><time>2011-07-13T10:11:45Z</time></trkpt><trkpt lat="51.961338" lon="-2.016017"><ele>137.13</ele><time>2011-07-13T10:11:55Z</time></trkpt><trkpt lat="51.961504" lon="-2.016064"><ele>137.61</ele><time>2011-07-13T10:12:14Z</time></trkpt><trkpt lat="51.961598" lon="-2.016097"><ele>137.61</ele><time>2011-07-13T10:12:25Z</time></trkpt><trkpt lat="51.961726" lon="-2.016173"><ele>136.64</ele><time>2011-07-13T10:12:39Z</time></trkpt><trkpt lat="51.961789" lon="-2.016226"><ele>135.68</ele><time>2011-07-13T10:12:48Z</time></trkpt><trkpt lat="51.961882" lon="-2.016302"><ele>133.28</ele><time>2011-07-13T10:13:01Z</time></trkpt><trkpt lat="51.961971" lon="-2.016382"><ele>131.84</ele><time>2011-07-13T10:13:13Z</time></trkpt><trkpt lat="51.962035" lon="-2.016476"><ele>130.40</ele><time>2011-07-13T10:13:24Z</time></trkpt><trkpt lat="51.962138" lon="-2.016579"><ele>129.92</ele><time>2011-07-13T10:13:37Z</time></trkpt><trkpt lat="51.962181" lon="-2.016714"><ele>128.95</ele><time>2011-07-13T10:13:50Z</time></trkpt><trkpt lat="51.962171" lon="-2.016852"><ele>127.51</ele><time>2011-07-13T10:14:02Z</time></trkpt><trkpt lat="51.962192" lon="-2.016902"><ele>127.99</ele><time>2011-07-13T10:14:10Z</time></trkpt><trkpt lat="51.962204" lon="-2.016889"><ele>127.99</ele><time>2011-07-13T10:14:16Z</time></trkpt><trkpt lat="51.962211" lon="-2.016859"><ele>127.51</ele><time>2011-07-13T10:14:24Z</time></trkpt><trkpt lat="51.962214" lon="-2.016863"><ele>127.03</ele><time>2011-07-13T10:14:34Z</time></trkpt><trkpt lat="51.962210" lon="-2.016936"><ele>126.55</ele><time>2011-07-13T10:14:41Z</time></trkpt><trkpt lat="51.962210" lon="-2.017004"><ele>126.55</ele><time>2011-07-13T10:14:45Z</time></trkpt><trkpt lat="51.962197" lon="-2.017226"><ele>126.55</ele><time>2011-07-13T10:14:57Z</time></trkpt><trkpt lat="51.962189" lon="-2.017393"><ele>126.07</ele><time>2011-07-13T10:15:06Z</time></trkpt><trkpt lat="51.962182" lon="-2.017473"><ele>124.63</ele><time>2011-07-13T10:15:10Z</time></trkpt><trkpt lat="51.962169" lon="-2.017671"><ele>123.67</ele><time>2011-07-13T10:15:20Z</time></trkpt><trkpt lat="51.962177" lon="-2.017831"><ele>121.74</ele><time>2011-07-13T10:15:29Z</time></trkpt><trkpt lat="51.962183" lon="-2.017868"><ele>122.22</ele><time>2011-07-13T10:15:31Z</time></trkpt><trkpt lat="51.962193" lon="-2.017919"><ele>121.74</ele><time>2011-07-13T10:15:34Z</time></trkpt><trkpt lat="51.962204" lon="-2.017982"><ele>121.26</ele><time>2011-07-13T10:15:38Z</time></trkpt><trkpt lat="51.962245" lon="-2.018125"><ele>120.78</ele><time>2011-07-13T10:15:47Z</time></trkpt><trkpt lat="51.962261" lon="-2.018191"><ele>120.30</ele><time>2011-07-13T10:15:51Z</time></trkpt><trkpt lat="51.962256" lon="-2.018400"><ele>120.78</ele><time>2011-07-13T10:16:04Z</time></trkpt><trkpt lat="51.962285" lon="-2.018568"><ele>122.71</ele><time>2011-07-13T10:16:14Z</time></trkpt><trkpt lat="51.962316" lon="-2.018685"><ele>122.71</ele><time>2011-07-13T10:16:22Z</time></trkpt><trkpt lat="51.962330" lon="-2.018737"><ele>122.71</ele><time>2011-07-13T10:16:27Z</time></trkpt><trkpt lat="51.962366" lon="-2.018820"><ele>123.67</ele><time>2011-07-13T10:16:34Z</time></trkpt><trkpt lat="51.962381" lon="-2.018841"><ele>124.15</ele><time>2011-07-13T10:16:36Z</time></trkpt><trkpt lat="51.962423" lon="-2.018922"><ele>123.67</ele><time>2011-07-13T10:16:42Z</time></trkpt><trkpt lat="51.962494" lon="-2.019011"><ele>123.67</ele><time>2011-07-13T10:16:49Z</time></trkpt><trkpt lat="51.962560" lon="-2.019104"><ele>122.71</ele><time>2011-07-13T10:16:57Z</time></trkpt><trkpt lat="51.962610" lon="-2.019159"><ele>124.15</ele><time>2011-07-13T10:17:05Z</time></trkpt><trkpt lat="51.962657" lon="-2.019232"><ele>125.59</ele><time>2011-07-13T10:17:11Z</time></trkpt><trkpt lat="51.962690" lon="-2.019333"><ele>125.11</ele><time>2011-07-13T10:17:18Z</time></trkpt><trkpt lat="51.962711" lon="-2.019394"><ele>125.11</ele><time>2011-07-13T10:17:23Z</time></trkpt><trkpt lat="51.962753" lon="-2.019514"><ele>126.55</ele><time>2011-07-13T10:17:33Z</time></trkpt><trkpt lat="51.962777" lon="-2.019625"><ele>127.03</ele><time>2011-07-13T10:17:41Z</time></trkpt><trkpt lat="51.962841" lon="-2.019729"><ele>127.03</ele><time>2011-07-13T10:17:50Z</time></trkpt><trkpt lat="51.962871" lon="-2.019781"><ele>128.47</ele><time>2011-07-13T10:17:57Z</time></trkpt><trkpt lat="51.962887" lon="-2.019920"><ele>129.92</ele><time>2011-07-13T10:18:07Z</time></trkpt><trkpt lat="51.962926" lon="-2.020028"><ele>130.88</ele><time>2011-07-13T10:18:16Z</time></trkpt><trkpt lat="51.962935" lon="-2.020054"><ele>131.36</ele><time>2011-07-13T10:18:18Z</time></trkpt><trkpt lat="51.962947" lon="-2.020081"><ele>131.36</ele><time>2011-07-13T10:18:20Z</time></trkpt><trkpt lat="51.962971" lon="-2.020187"><ele>132.80</ele><time>2011-07-13T10:18:28Z</time></trkpt><trkpt lat="51.963007" lon="-2.020294"><ele>133.28</ele><time>2011-07-13T10:18:36Z</time></trkpt><trkpt lat="51.963048" lon="-2.020374"><ele>134.24</ele><time>2011-07-13T10:18:43Z</time></trkpt><trkpt lat="51.963091" lon="-2.020468"><ele>134.24</ele><time>2011-07-13T10:18:50Z</time></trkpt><trkpt lat="51.963100" lon="-2.020498"><ele>134.24</ele><time>2011-07-13T10:18:52Z</time></trkpt><trkpt lat="51.963144" lon="-2.020658"><ele>134.24</ele><time>2011-07-13T10:19:03Z</time></trkpt><trkpt lat="51.963190" lon="-2.020768"><ele>134.72</ele><time>2011-07-13T10:19:12Z</time></trkpt><trkpt lat="51.963265" lon="-2.020888"><ele>135.68</ele><time>2011-07-13T10:19:22Z</time></trkpt><trkpt lat="51.963350" lon="-2.021000"><ele>137.61</ele><time>2011-07-13T10:19:32Z</time></trkpt><trkpt lat="51.963408" lon="-2.021125"><ele>137.13</ele><time>2011-07-13T10:19:42Z</time></trkpt><trkpt lat="51.963440" lon="-2.021256"><ele>134.72</ele><time>2011-07-13T10:19:51Z</time></trkpt><trkpt lat="51.963514" lon="-2.021382"><ele>134.24</ele><time>2011-07-13T10:20:01Z</time></trkpt><trkpt lat="51.963576" lon="-2.021493"><ele>133.76</ele><time>2011-07-13T10:20:10Z</time></trkpt><trkpt lat="51.963620" lon="-2.021583"><ele>132.80</ele><time>2011-07-13T10:20:17Z</time></trkpt><trkpt lat="51.963692" lon="-2.021676"><ele>133.28</ele><time>2011-07-13T10:20:27Z</time></trkpt><trkpt lat="51.963745" lon="-2.021797"><ele>133.28</ele><time>2011-07-13T10:20:36Z</time></trkpt><trkpt lat="51.963783" lon="-2.021940"><ele>133.76</ele><time>2011-07-13T10:20:45Z</time></trkpt><trkpt lat="51.963819" lon="-2.022076"><ele>133.28</ele><time>2011-07-13T10:20:54Z</time></trkpt><trkpt lat="51.963865" lon="-2.022179"><ele>132.32</ele><time>2011-07-13T10:21:02Z</time></trkpt><trkpt lat="51.963906" lon="-2.022225"><ele>131.36</ele><time>2011-07-13T10:21:08Z</time></trkpt><trkpt lat="51.963975" lon="-2.022243"><ele>130.40</ele><time>2011-07-13T10:21:15Z</time></trkpt><trkpt lat="51.964100" lon="-2.022280"><ele>133.76</ele><time>2011-07-13T10:21:24Z</time></trkpt><trkpt lat="51.964176" lon="-2.022310"><ele>135.20</ele><time>2011-07-13T10:21:32Z</time></trkpt><trkpt lat="51.964268" lon="-2.022322"><ele>136.64</ele><time>2011-07-13T10:21:40Z</time></trkpt><trkpt lat="51.964275" lon="-2.022359"><ele>136.16</ele><time>2011-07-13T10:21:47Z</time></trkpt><trkpt lat="51.964244" lon="-2.022388"><ele>136.64</ele><time>2011-07-13T10:21:55Z</time></trkpt><trkpt lat="51.964203" lon="-2.022420"><ele>136.64</ele><time>2011-07-13T10:22:03Z</time></trkpt><trkpt lat="51.964128" lon="-2.022485"><ele>140.01</ele><time>2011-07-13T10:22:17Z</time></trkpt><trkpt lat="51.964045" lon="-2.022533"><ele>141.93</ele><time>2011-07-13T10:22:30Z</time></trkpt><trkpt lat="51.963993" lon="-2.022584"><ele>143.85</ele><time>2011-07-13T10:22:39Z</time></trkpt><trkpt lat="51.963947" lon="-2.022614"><ele>145.78</ele><time>2011-07-13T10:22:47Z</time></trkpt><trkpt lat="51.963892" lon="-2.022659"><ele>146.74</ele><time>2011-07-13T10:22:58Z</time></trkpt><trkpt lat="51.963811" lon="-2.022705"><ele>145.78</ele><time>2011-07-13T10:23:11Z</time></trkpt><trkpt lat="51.963738" lon="-2.022774"><ele>145.30</ele><time>2011-07-13T10:23:22Z</time></trkpt><trkpt lat="51.963683" lon="-2.022815"><ele>144.82</ele><time>2011-07-13T10:23:29Z</time></trkpt><trkpt lat="51.963620" lon="-2.022857"><ele>145.78</ele><time>2011-07-13T10:23:36Z</time></trkpt><trkpt lat="51.963577" lon="-2.022893"><ele>146.74</ele><time>2011-07-13T10:23:42Z</time></trkpt><trkpt lat="51.963509" lon="-2.022929"><ele>146.74</ele><time>2011-07-13T10:23:51Z</time></trkpt><trkpt lat="51.963443" lon="-2.022972"><ele>146.74</ele><time>2011-07-13T10:23:59Z</time></trkpt><trkpt lat="51.963376" lon="-2.023009"><ele>147.70</ele><time>2011-07-13T10:24:07Z</time></trkpt><trkpt lat="51.963322" lon="-2.023054"><ele>149.62</ele><time>2011-07-13T10:24:15Z</time></trkpt><trkpt lat="51.963228" lon="-2.023108"><ele>151.06</ele><time>2011-07-13T10:24:25Z</time></trkpt><trkpt lat="51.963183" lon="-2.023136"><ele>152.99</ele><time>2011-07-13T10:24:32Z</time></trkpt><trkpt lat="51.963127" lon="-2.023163"><ele>155.39</ele><time>2011-07-13T10:24:41Z</time></trkpt><trkpt lat="51.963064" lon="-2.023198"><ele>156.83</ele><time>2011-07-13T10:24:50Z</time></trkpt><trkpt lat="51.963007" lon="-2.023227"><ele>157.31</ele><time>2011-07-13T10:24:57Z</time></trkpt><trkpt lat="51.962964" lon="-2.023261"><ele>157.31</ele><time>2011-07-13T10:25:09Z</time></trkpt><trkpt lat="51.962966" lon="-2.023252"><ele>155.87</ele><time>2011-07-13T10:25:20Z</time></trkpt><trkpt lat="51.962927" lon="-2.023279"><ele>151.06</ele><time>2011-07-13T10:25:55Z</time></trkpt><trkpt lat="51.962927" lon="-2.023288"><ele>151.06</ele><time>2011-07-13T10:25:57Z</time></trkpt><trkpt lat="51.962902" lon="-2.023311"><ele>151.54</ele><time>2011-07-13T10:26:03Z</time></trkpt><trkpt lat="51.962828" lon="-2.023363"><ele>152.51</ele><time>2011-07-13T10:26:13Z</time></trkpt><trkpt lat="51.962717" lon="-2.023432"><ele>153.47</ele><time>2011-07-13T10:26:24Z</time></trkpt><trkpt lat="51.962628" lon="-2.023512"><ele>152.51</ele><time>2011-07-13T10:26:34Z</time></trkpt><trkpt lat="51.962497" lon="-2.023604"><ele>152.99</ele><time>2011-07-13T10:26:47Z</time></trkpt><trkpt lat="51.962412" lon="-2.023677"><ele>154.91</ele><time>2011-07-13T10:26:56Z</time></trkpt><trkpt lat="51.962353" lon="-2.023728"><ele>156.35</ele><time>2011-07-13T10:27:03Z</time></trkpt><trkpt lat="51.962308" lon="-2.023810"><ele>157.79</ele><time>2011-07-13T10:27:12Z</time></trkpt><trkpt lat="51.962181" lon="-2.023913"><ele>160.20</ele><time>2011-07-13T10:27:25Z</time></trkpt><trkpt lat="51.962107" lon="-2.023961"><ele>161.16</ele><time>2011-07-13T10:27:32Z</time></trkpt><trkpt lat="51.962034" lon="-2.023976"><ele>164.52</ele><time>2011-07-13T10:27:41Z</time></trkpt><trkpt lat="51.961976" lon="-2.023999"><ele>166.45</ele><time>2011-07-13T10:27:48Z</time></trkpt><trkpt lat="51.961905" lon="-2.024024"><ele>170.29</ele><time>2011-07-13T10:27:56Z</time></trkpt><trkpt lat="51.961829" lon="-2.024079"><ele>172.21</ele><time>2011-07-13T10:28:05Z</time></trkpt><trkpt lat="51.961790" lon="-2.024136"><ele>174.62</ele><time>2011-07-13T10:28:15Z</time></trkpt><trkpt lat="51.961743" lon="-2.024215"><ele>177.02</ele><time>2011-07-13T10:28:23Z</time></trkpt><trkpt lat="51.961699" lon="-2.024291"><ele>178.94</ele><time>2011-07-13T10:28:30Z</time></trkpt><trkpt lat="51.961657" lon="-2.024358"><ele>180.87</ele><time>2011-07-13T10:28:40Z</time></trkpt><trkpt lat="51.961631" lon="-2.024412"><ele>180.87</ele><time>2011-07-13T10:28:47Z</time></trkpt><trkpt lat="51.961610" lon="-2.024502"><ele>179.90</ele><time>2011-07-13T10:28:55Z</time></trkpt><trkpt lat="51.961597" lon="-2.024597"><ele>179.90</ele><time>2011-07-13T10:29:02Z</time></trkpt><trkpt lat="51.961590" lon="-2.024660"><ele>179.90</ele><time>2011-07-13T10:29:07Z</time></trkpt><trkpt lat="51.961579" lon="-2.024728"><ele>179.42</ele><time>2011-07-13T10:29:14Z</time></trkpt><trkpt lat="51.961565" lon="-2.024757"><ele>178.46</ele><time>2011-07-13T10:29:26Z</time></trkpt><trkpt lat="51.961559" lon="-2.024768"><ele>178.46</ele><time>2011-07-13T10:29:49Z</time></trkpt><trkpt lat="51.961516" lon="-2.024803"><ele>177.98</ele><time>2011-07-13T10:29:56Z</time></trkpt><trkpt lat="51.961450" lon="-2.024811"><ele>177.98</ele><time>2011-07-13T10:30:04Z</time></trkpt><trkpt lat="51.961405" lon="-2.024830"><ele>177.50</ele><time>2011-07-13T10:30:11Z</time></trkpt><trkpt lat="51.961338" lon="-2.024888"><ele>178.46</ele><time>2011-07-13T10:30:21Z</time></trkpt><trkpt lat="51.961279" lon="-2.024921"><ele>178.46</ele><time>2011-07-13T10:30:31Z</time></trkpt><trkpt lat="51.961200" lon="-2.024957"><ele>178.46</ele><time>2011-07-13T10:30:42Z</time></trkpt><trkpt lat="51.961146" lon="-2.024955"><ele>180.38</ele><time>2011-07-13T10:30:56Z</time></trkpt><trkpt lat="51.961137" lon="-2.024952"><ele>180.87</ele><time>2011-07-13T10:31:04Z</time></trkpt><trkpt lat="51.961088" lon="-2.024933"><ele>180.87</ele><time>2011-07-13T10:31:12Z</time></trkpt><trkpt lat="51.961024" lon="-2.024928"><ele>180.38</ele><time>2011-07-13T10:31:20Z</time></trkpt><trkpt lat="51.960954" lon="-2.024902"><ele>180.87</ele><time>2011-07-13T10:31:29Z</time></trkpt><trkpt lat="51.960915" lon="-2.024896"><ele>181.83</ele><time>2011-07-13T10:31:36Z</time></trkpt><trkpt lat="51.960857" lon="-2.024888"><ele>184.71</ele><time>2011-07-13T10:31:46Z</time></trkpt><trkpt lat="51.960797" lon="-2.024905"><ele>186.15</ele><time>2011-07-13T10:31:54Z</time></trkpt><trkpt lat="51.960739" lon="-2.024894"><ele>186.63</ele><time>2011-07-13T10:32:03Z</time></trkpt><trkpt lat="51.960701" lon="-2.024902"><ele>186.63</ele><time>2011-07-13T10:32:12Z</time></trkpt><trkpt lat="51.960663" lon="-2.024903"><ele>187.11</ele><time>2011-07-13T10:32:20Z</time></trkpt><trkpt lat="51.960607" lon="-2.024903"><ele>187.11</ele><time>2011-07-13T10:32:29Z</time></trkpt><trkpt lat="51.960544" lon="-2.024873"><ele>189.04</ele><time>2011-07-13T10:32:41Z</time></trkpt><trkpt lat="51.960532" lon="-2.024873"><ele>189.52</ele><time>2011-07-13T10:32:51Z</time></trkpt><trkpt lat="51.960547" lon="-2.024862"><ele>192.40</ele><time>2011-07-13T10:33:08Z</time></trkpt><trkpt lat="51.960444" lon="-2.024891"><ele>195.28</ele><time>2011-07-13T10:33:17Z</time></trkpt><trkpt lat="51.960422" lon="-2.024900"><ele>195.28</ele><time>2011-07-13T10:33:19Z</time></trkpt><trkpt lat="51.960325" lon="-2.024907"><ele>197.69</ele><time>2011-07-13T10:33:28Z</time></trkpt><trkpt lat="51.960249" lon="-2.024902"><ele>197.69</ele><time>2011-07-13T10:33:35Z</time></trkpt><trkpt lat="51.960190" lon="-2.024886"><ele>199.61</ele><time>2011-07-13T10:33:43Z</time></trkpt><trkpt lat="51.960142" lon="-2.024899"><ele>200.09</ele><time>2011-07-13T10:33:51Z</time></trkpt><trkpt lat="51.960103" lon="-2.024906"><ele>200.09</ele><time>2011-07-13T10:34:00Z</time></trkpt><trkpt lat="51.960072" lon="-2.024922"><ele>200.57</ele><time>2011-07-13T10:34:06Z</time></trkpt><trkpt lat="51.960015" lon="-2.024915"><ele>202.01</ele><time>2011-07-13T10:34:15Z</time></trkpt><trkpt lat="51.959953" lon="-2.024899"><ele>203.46</ele><time>2011-07-13T10:34:27Z</time></trkpt><trkpt lat="51.959897" lon="-2.024875"><ele>205.86</ele><time>2011-07-13T10:34:35Z</time></trkpt><trkpt lat="51.959852" lon="-2.024887"><ele>207.30</ele><time>2011-07-13T10:34:45Z</time></trkpt><trkpt lat="51.959810" lon="-2.024875"><ele>209.22</ele><time>2011-07-13T10:34:54Z</time></trkpt><trkpt lat="51.959766" lon="-2.024880"><ele>210.67</ele><time>2011-07-13T10:35:03Z</time></trkpt><trkpt lat="51.959727" lon="-2.024878"><ele>212.11</ele><time>2011-07-13T10:35:10Z</time></trkpt><trkpt lat="51.959672" lon="-2.024872"><ele>213.55</ele><time>2011-07-13T10:35:19Z</time></trkpt><trkpt lat="51.959620" lon="-2.024860"><ele>214.51</ele><time>2011-07-13T10:35:28Z</time></trkpt><trkpt lat="51.959560" lon="-2.024859"><ele>214.03</ele><time>2011-07-13T10:35:37Z</time></trkpt><trkpt lat="51.959518" lon="-2.024875"><ele>214.51</ele><time>2011-07-13T10:35:44Z</time></trkpt><trkpt lat="51.959470" lon="-2.024904"><ele>213.55</ele><time>2011-07-13T10:35:53Z</time></trkpt><trkpt lat="51.959395" lon="-2.024948"><ele>210.67</ele><time>2011-07-13T10:36:04Z</time></trkpt><trkpt lat="51.959338" lon="-2.024937"><ele>207.78</ele><time>2011-07-13T10:36:13Z</time></trkpt><trkpt lat="51.959274" lon="-2.024928"><ele>205.86</ele><time>2011-07-13T10:36:26Z</time></trkpt><trkpt lat="51.959195" lon="-2.024950"><ele>203.94</ele><time>2011-07-13T10:36:36Z</time></trkpt><trkpt lat="51.959131" lon="-2.024953"><ele>204.90</ele><time>2011-07-13T10:36:48Z</time></trkpt><trkpt lat="51.959083" lon="-2.024936"><ele>205.86</ele><time>2011-07-13T10:36:57Z</time></trkpt><trkpt lat="51.959039" lon="-2.024915"><ele>205.86</ele><time>2011-07-13T10:37:03Z</time></trkpt><trkpt lat="51.958971" lon="-2.024884"><ele>204.42</ele><time>2011-07-13T10:37:15Z</time></trkpt><trkpt lat="51.958923" lon="-2.024868"><ele>202.98</ele><time>2011-07-13T10:37:25Z</time></trkpt><trkpt lat="51.958864" lon="-2.024860"><ele>203.46</ele><time>2011-07-13T10:37:34Z</time></trkpt><trkpt lat="51.958802" lon="-2.024859"><ele>205.38</ele><time>2011-07-13T10:37:43Z</time></trkpt><trkpt lat="51.958746" lon="-2.024855"><ele>206.34</ele><time>2011-07-13T10:37:50Z</time></trkpt><trkpt lat="51.958687" lon="-2.024814"><ele>208.74</ele><time>2011-07-13T10:37:59Z</time></trkpt><trkpt lat="51.958676" lon="-2.024799"><ele>209.22</ele><time>2011-07-13T10:38:01Z</time></trkpt><trkpt lat="51.958616" lon="-2.024727"><ele>210.19</ele><time>2011-07-13T10:38:10Z</time></trkpt><trkpt lat="51.958595" lon="-2.024707"><ele>210.67</ele><time>2011-07-13T10:38:13Z</time></trkpt><trkpt lat="51.958541" lon="-2.024666"><ele>211.15</ele><time>2011-07-13T10:38:20Z</time></trkpt><trkpt lat="51.958501" lon="-2.024573"><ele>211.63</ele><time>2011-07-13T10:38:29Z</time></trkpt><trkpt lat="51.958481" lon="-2.024500"><ele>213.55</ele><time>2011-07-13T10:38:37Z</time></trkpt><trkpt lat="51.958443" lon="-2.024403"><ele>214.51</ele><time>2011-07-13T10:38:46Z</time></trkpt><trkpt lat="51.958397" lon="-2.024323"><ele>214.99</ele><time>2011-07-13T10:38:54Z</time></trkpt><trkpt lat="51.958364" lon="-2.024273"><ele>215.95</ele><time>2011-07-13T10:39:00Z</time></trkpt><trkpt lat="51.958319" lon="-2.024215"><ele>215.47</ele><time>2011-07-13T10:39:07Z</time></trkpt><trkpt lat="51.958282" lon="-2.024125"><ele>216.43</ele><time>2011-07-13T10:39:15Z</time></trkpt><trkpt lat="51.958244" lon="-2.024070"><ele>217.88</ele><time>2011-07-13T10:39:22Z</time></trkpt><trkpt lat="51.958197" lon="-2.023997"><ele>218.84</ele><time>2011-07-13T10:39:30Z</time></trkpt><trkpt lat="51.958150" lon="-2.023919"><ele>218.36</ele><time>2011-07-13T10:39:38Z</time></trkpt><trkpt lat="51.958099" lon="-2.023849"><ele>218.36</ele><time>2011-07-13T10:39:47Z</time></trkpt><trkpt lat="51.958053" lon="-2.023780"><ele>219.80</ele><time>2011-07-13T10:39:55Z</time></trkpt><trkpt lat="51.958015" lon="-2.023716"><ele>221.72</ele><time>2011-07-13T10:40:02Z</time></trkpt><trkpt lat="51.957980" lon="-2.023644"><ele>222.68</ele><time>2011-07-13T10:40:09Z</time></trkpt><trkpt lat="51.957941" lon="-2.023592"><ele>222.68</ele><time>2011-07-13T10:40:17Z</time></trkpt><trkpt lat="51.957881" lon="-2.023503"><ele>222.68</ele><time>2011-07-13T10:40:28Z</time></trkpt><trkpt lat="51.957822" lon="-2.023423"><ele>223.64</ele><time>2011-07-13T10:40:37Z</time></trkpt><trkpt lat="51.957770" lon="-2.023348"><ele>224.61</ele><time>2011-07-13T10:40:44Z</time></trkpt><trkpt lat="51.957716" lon="-2.023276"><ele>224.61</ele><time>2011-07-13T10:40:52Z</time></trkpt><trkpt lat="51.957662" lon="-2.023230"><ele>224.12</ele><time>2011-07-13T10:40:59Z</time></trkpt><trkpt lat="51.957641" lon="-2.023210"><ele>226.05</ele><time>2011-07-13T10:41:10Z</time></trkpt><trkpt lat="51.957629" lon="-2.023205"><ele>227.01</ele><time>2011-07-13T10:41:25Z</time></trkpt><trkpt lat="51.957556" lon="-2.023142"><ele>227.97</ele><time>2011-07-13T10:41:34Z</time></trkpt><trkpt lat="51.957493" lon="-2.023096"><ele>228.45</ele><time>2011-07-13T10:41:42Z</time></trkpt><trkpt lat="51.957420" lon="-2.023046"><ele>228.93</ele><time>2011-07-13T10:41:51Z</time></trkpt><trkpt lat="51.957336" lon="-2.023010"><ele>230.37</ele><time>2011-07-13T10:42:00Z</time></trkpt><trkpt lat="51.957255" lon="-2.022958"><ele>230.85</ele><time>2011-07-13T10:42:10Z</time></trkpt><trkpt lat="51.957171" lon="-2.022918"><ele>230.85</ele><time>2011-07-13T10:42:17Z</time></trkpt><trkpt lat="51.957103" lon="-2.022876"><ele>230.37</ele><time>2011-07-13T10:42:25Z</time></trkpt><trkpt lat="51.957030" lon="-2.022824"><ele>230.37</ele><time>2011-07-13T10:42:34Z</time></trkpt><trkpt lat="51.956959" lon="-2.022756"><ele>231.33</ele><time>2011-07-13T10:42:43Z</time></trkpt><trkpt lat="51.956881" lon="-2.022682"><ele>231.81</ele><time>2011-07-13T10:42:53Z</time></trkpt><trkpt lat="51.956819" lon="-2.022622"><ele>232.30</ele><time>2011-07-13T10:43:00Z</time></trkpt><trkpt lat="51.956721" lon="-2.022547"><ele>234.22</ele><time>2011-07-13T10:43:10Z</time></trkpt><trkpt lat="51.956645" lon="-2.022490"><ele>236.62</ele><time>2011-07-13T10:43:19Z</time></trkpt><trkpt lat="51.956576" lon="-2.022436"><ele>237.58</ele><time>2011-07-13T10:43:27Z</time></trkpt><trkpt lat="51.956531" lon="-2.022417"><ele>238.06</ele><time>2011-07-13T10:43:35Z</time></trkpt><trkpt lat="51.956443" lon="-2.022369"><ele>235.18</ele><time>2011-07-13T10:43:44Z</time></trkpt><trkpt lat="51.956408" lon="-2.022368"><ele>234.22</ele><time>2011-07-13T10:43:52Z</time></trkpt><trkpt lat="51.956403" lon="-2.022346"><ele>234.22</ele><time>2011-07-13T10:44:00Z</time></trkpt><trkpt lat="51.956396" lon="-2.022330"><ele>233.26</ele><time>2011-07-13T10:44:13Z</time></trkpt><trkpt lat="51.956374" lon="-2.022307"><ele>233.26</ele><time>2011-07-13T10:44:17Z</time></trkpt><trkpt lat="51.956312" lon="-2.022231"><ele>232.78</ele><time>2011-07-13T10:44:26Z</time></trkpt><trkpt lat="51.956271" lon="-2.022187"><ele>231.81</ele><time>2011-07-13T10:44:39Z</time></trkpt><trkpt lat="51.956249" lon="-2.022161"><ele>230.85</ele><time>2011-07-13T10:44:49Z</time></trkpt><trkpt lat="51.956255" lon="-2.022149"><ele>235.18</ele><time>2011-07-13T10:45:26Z</time></trkpt><trkpt lat="51.956222" lon="-2.022106"><ele>234.70</ele><time>2011-07-13T10:45:32Z</time></trkpt><trkpt lat="51.956167" lon="-2.022024"><ele>233.26</ele><time>2011-07-13T10:45:40Z</time></trkpt><trkpt lat="51.956124" lon="-2.021984"><ele>231.81</ele><time>2011-07-13T10:45:46Z</time></trkpt><trkpt lat="51.956077" lon="-2.021954"><ele>230.37</ele><time>2011-07-13T10:45:54Z</time></trkpt><trkpt lat="51.956057" lon="-2.021918"><ele>231.81</ele><time>2011-07-13T10:46:00Z</time></trkpt><trkpt lat="51.956003" lon="-2.021873"><ele>232.30</ele><time>2011-07-13T10:46:06Z</time></trkpt><trkpt lat="51.955951" lon="-2.021825"><ele>230.37</ele><time>2011-07-13T10:46:13Z</time></trkpt><trkpt lat="51.955899" lon="-2.021763"><ele>228.93</ele><time>2011-07-13T10:46:20Z</time></trkpt><trkpt lat="51.955855" lon="-2.021716"><ele>227.49</ele><time>2011-07-13T10:46:26Z</time></trkpt><trkpt lat="51.955808" lon="-2.021649"><ele>227.01</ele><time>2011-07-13T10:46:33Z</time></trkpt><trkpt lat="51.955768" lon="-2.021605"><ele>227.01</ele><time>2011-07-13T10:46:39Z</time></trkpt><trkpt lat="51.955730" lon="-2.021554"><ele>226.53</ele><time>2011-07-13T10:46:45Z</time></trkpt><trkpt lat="51.955670" lon="-2.021468"><ele>226.53</ele><time>2011-07-13T10:46:54Z</time></trkpt><trkpt lat="51.955613" lon="-2.021414"><ele>226.05</ele><time>2011-07-13T10:47:01Z</time></trkpt><trkpt lat="51.955568" lon="-2.021356"><ele>225.09</ele><time>2011-07-13T10:47:08Z</time></trkpt><trkpt lat="51.955504" lon="-2.021294"><ele>223.64</ele><time>2011-07-13T10:47:17Z</time></trkpt><trkpt lat="51.955478" lon="-2.021252"><ele>223.64</ele><time>2011-07-13T10:47:23Z</time></trkpt><trkpt lat="51.955429" lon="-2.021172"><ele>224.61</ele><time>2011-07-13T10:47:31Z</time></trkpt><trkpt lat="51.955369" lon="-2.021102"><ele>225.09</ele><time>2011-07-13T10:47:38Z</time></trkpt><trkpt lat="51.955318" lon="-2.021035"><ele>226.53</ele><time>2011-07-13T10:47:45Z</time></trkpt><trkpt lat="51.955270" lon="-2.020959"><ele>227.97</ele><time>2011-07-13T10:47:52Z</time></trkpt><trkpt lat="51.955216" lon="-2.020879"><ele>229.89</ele><time>2011-07-13T10:48:00Z</time></trkpt><trkpt lat="51.955147" lon="-2.020806"><ele>230.85</ele><time>2011-07-13T10:48:08Z</time></trkpt><trkpt lat="51.955073" lon="-2.020735"><ele>229.89</ele><time>2011-07-13T10:48:17Z</time></trkpt><trkpt lat="51.955035" lon="-2.020710"><ele>229.41</ele><time>2011-07-13T10:48:21Z</time></trkpt><trkpt lat="51.954992" lon="-2.020680"><ele>229.89</ele><time>2011-07-13T10:48:28Z</time></trkpt><trkpt lat="51.954974" lon="-2.020635"><ele>230.37</ele><time>2011-07-13T10:48:34Z</time></trkpt><trkpt lat="51.954953" lon="-2.020605"><ele>229.89</ele><time>2011-07-13T10:48:41Z</time></trkpt><trkpt lat="51.954934" lon="-2.020586"><ele>229.89</ele><time>2011-07-13T10:48:44Z</time></trkpt><trkpt lat="51.954856" lon="-2.020512"><ele>229.41</ele><time>2011-07-13T10:48:53Z</time></trkpt><trkpt lat="51.954773" lon="-2.020400"><ele>227.97</ele><time>2011-07-13T10:49:04Z</time></trkpt><trkpt lat="51.954704" lon="-2.020302"><ele>227.01</ele><time>2011-07-13T10:49:13Z</time></trkpt><trkpt lat="51.954642" lon="-2.020186"><ele>226.05</ele><time>2011-07-13T10:49:23Z</time></trkpt><trkpt lat="51.954590" lon="-2.020069"><ele>226.53</ele><time>2011-07-13T10:49:32Z</time></trkpt><trkpt lat="51.954554" lon="-2.019966"><ele>226.53</ele><time>2011-07-13T10:49:40Z</time></trkpt><trkpt lat="51.954549" lon="-2.019955"><ele>226.05</ele><time>2011-07-13T10:49:41Z</time></trkpt><trkpt lat="51.954505" lon="-2.019884"><ele>225.57</ele><time>2011-07-13T10:49:47Z</time></trkpt><trkpt lat="51.954470" lon="-2.019800"><ele>225.09</ele><time>2011-07-13T10:49:53Z</time></trkpt><trkpt lat="51.954410" lon="-2.019693"><ele>225.57</ele><time>2011-07-13T10:50:01Z</time></trkpt><trkpt lat="51.954347" lon="-2.019587"><ele>226.05</ele><time>2011-07-13T10:50:09Z</time></trkpt><trkpt lat="51.954308" lon="-2.019476"><ele>227.01</ele><time>2011-07-13T10:50:17Z</time></trkpt><trkpt lat="51.954283" lon="-2.019400"><ele>226.53</ele><time>2011-07-13T10:50:24Z</time></trkpt><trkpt lat="51.954240" lon="-2.019317"><ele>227.01</ele><time>2011-07-13T10:50:31Z</time></trkpt><trkpt lat="51.954207" lon="-2.019227"><ele>227.01</ele><time>2011-07-13T10:50:39Z</time></trkpt><trkpt lat="51.954173" lon="-2.019113"><ele>227.49</ele><time>2011-07-13T10:50:48Z</time></trkpt><trkpt lat="51.954166" lon="-2.019099"><ele>227.49</ele><time>2011-07-13T10:50:49Z</time></trkpt><trkpt lat="51.954114" lon="-2.019010"><ele>228.45</ele><time>2011-07-13T10:50:57Z</time></trkpt><trkpt lat="51.954111" lon="-2.019000"><ele>228.45</ele><time>2011-07-13T10:50:58Z</time></trkpt><trkpt lat="51.954077" lon="-2.018929"><ele>228.93</ele><time>2011-07-13T10:51:06Z</time></trkpt><trkpt lat="51.954062" lon="-2.018929"><ele>228.45</ele><time>2011-07-13T10:51:13Z</time></trkpt><trkpt lat="51.954070" lon="-2.018922"><ele>228.93</ele><time>2011-07-13T10:51:21Z</time></trkpt><trkpt lat="51.954061" lon="-2.018890"><ele>228.93</ele><time>2011-07-13T10:51:29Z</time></trkpt><trkpt lat="51.954024" lon="-2.018796"><ele>228.93</ele><time>2011-07-13T10:51:37Z</time></trkpt><trkpt lat="51.953993" lon="-2.018759"><ele>229.89</ele><time>2011-07-13T10:51:41Z</time></trkpt><trkpt lat="51.953910" lon="-2.018725"><ele>233.26</ele><time>2011-07-13T10:51:49Z</time></trkpt><trkpt lat="51.953865" lon="-2.018726"><ele>237.10</ele><time>2011-07-13T10:51:56Z</time></trkpt><trkpt lat="51.953848" lon="-2.018635"><ele>239.51</ele><time>2011-07-13T10:52:02Z</time></trkpt><trkpt lat="51.953818" lon="-2.018535"><ele>241.43</ele><time>2011-07-13T10:52:10Z</time></trkpt><trkpt lat="51.953723" lon="-2.018489"><ele>244.31</ele><time>2011-07-13T10:52:19Z</time></trkpt><trkpt lat="51.953616" lon="-2.018479"><ele>248.64</ele><time>2011-07-13T10:52:31Z</time></trkpt><trkpt lat="51.953606" lon="-2.018478"><ele>249.12</ele><time>2011-07-13T10:52:32Z</time></trkpt><trkpt lat="51.953530" lon="-2.018473"><ele>251.52</ele><time>2011-07-13T10:52:40Z</time></trkpt><trkpt lat="51.953442" lon="-2.018470"><ele>253.93</ele><time>2011-07-13T10:52:51Z</time></trkpt><trkpt lat="51.953363" lon="-2.018484"><ele>254.89</ele><time>2011-07-13T10:52:59Z</time></trkpt><trkpt lat="51.953302" lon="-2.018523"><ele>254.41</ele><time>2011-07-13T10:53:07Z</time></trkpt><trkpt lat="51.953263" lon="-2.018560"><ele>254.41</ele><time>2011-07-13T10:53:14Z</time></trkpt><trkpt lat="51.953251" lon="-2.018600"><ele>254.41</ele><time>2011-07-13T10:53:22Z</time></trkpt><trkpt lat="51.953172" lon="-2.018623"><ele>254.89</ele><time>2011-07-13T10:53:33Z</time></trkpt><trkpt lat="51.953102" lon="-2.018646"><ele>255.37</ele><time>2011-07-13T10:53:42Z</time></trkpt><trkpt lat="51.953035" lon="-2.018711"><ele>255.85</ele><time>2011-07-13T10:53:52Z</time></trkpt><trkpt lat="51.952944" lon="-2.018811"><ele>252.48</ele><time>2011-07-13T10:54:02Z</time></trkpt><trkpt lat="51.952840" lon="-2.018961"><ele>242.87</ele><time>2011-07-13T10:54:12Z</time></trkpt><trkpt lat="51.952754" lon="-2.019053"><ele>239.99</ele><time>2011-07-13T10:54:23Z</time></trkpt><trkpt lat="51.952646" lon="-2.019162"><ele>239.51</ele><time>2011-07-13T10:54:37Z</time></trkpt><trkpt lat="51.952562" lon="-2.019278"><ele>238.54</ele><time>2011-07-13T10:54:50Z</time></trkpt><trkpt lat="51.952470" lon="-2.019389"><ele>238.06</ele><time>2011-07-13T10:55:04Z</time></trkpt><trkpt lat="51.952370" lon="-2.019522"><ele>238.06</ele><time>2011-07-13T10:55:19Z</time></trkpt><trkpt lat="51.952280" lon="-2.019636"><ele>237.58</ele><time>2011-07-13T10:55:33Z</time></trkpt><trkpt lat="51.952192" lon="-2.019746"><ele>238.06</ele><time>2011-07-13T10:55:46Z</time></trkpt><trkpt lat="51.952111" lon="-2.019859"><ele>239.02</ele><time>2011-07-13T10:55:58Z</time></trkpt><trkpt lat="51.952030" lon="-2.019950"><ele>239.02</ele><time>2011-07-13T10:56:10Z</time></trkpt><trkpt lat="51.951948" lon="-2.020044"><ele>239.51</ele><time>2011-07-13T10:56:21Z</time></trkpt><trkpt lat="51.951863" lon="-2.020137"><ele>239.99</ele><time>2011-07-13T10:56:33Z</time></trkpt><trkpt lat="51.951762" lon="-2.020221"><ele>239.02</ele><time>2011-07-13T10:56:48Z</time></trkpt><trkpt lat="51.951659" lon="-2.020296"><ele>239.02</ele><time>2011-07-13T10:57:02Z</time></trkpt><trkpt lat="51.951527" lon="-2.020387"><ele>239.51</ele><time>2011-07-13T10:57:18Z</time></trkpt><trkpt lat="51.951422" lon="-2.020450"><ele>239.99</ele><time>2011-07-13T10:57:30Z</time></trkpt><trkpt lat="51.951329" lon="-2.020490"><ele>241.91</ele><time>2011-07-13T10:57:40Z</time></trkpt><trkpt lat="51.951266" lon="-2.020516"><ele>243.35</ele><time>2011-07-13T10:57:48Z</time></trkpt><trkpt lat="51.951203" lon="-2.020538"><ele>244.31</ele><time>2011-07-13T10:57:56Z</time></trkpt><trkpt lat="51.951133" lon="-2.020555"><ele>245.27</ele><time>2011-07-13T10:58:04Z</time></trkpt><trkpt lat="51.951074" lon="-2.020568"><ele>245.75</ele><time>2011-07-13T10:58:11Z</time></trkpt><trkpt lat="51.951004" lon="-2.020586"><ele>246.72</ele><time>2011-07-13T10:58:19Z</time></trkpt><trkpt lat="51.950981" lon="-2.020599"><ele>246.23</ele><time>2011-07-13T10:58:25Z</time></trkpt><trkpt lat="51.950937" lon="-2.020616"><ele>245.75</ele><time>2011-07-13T10:58:38Z</time></trkpt><trkpt lat="51.950802" lon="-2.020624"><ele>246.72</ele><time>2011-07-13T10:58:54Z</time></trkpt><trkpt lat="51.950712" lon="-2.020621"><ele>247.68</ele><time>2011-07-13T10:59:03Z</time></trkpt><trkpt lat="51.950648" lon="-2.020623"><ele>248.64</ele><time>2011-07-13T10:59:10Z</time></trkpt><trkpt lat="51.950567" lon="-2.020611"><ele>249.60</ele><time>2011-07-13T10:59:18Z</time></trkpt><trkpt lat="51.950487" lon="-2.020603"><ele>250.08</ele><time>2011-07-13T10:59:27Z</time></trkpt><trkpt lat="51.950416" lon="-2.020604"><ele>250.08</ele><time>2011-07-13T10:59:35Z</time></trkpt><trkpt lat="51.950335" lon="-2.020596"><ele>250.08</ele><time>2011-07-13T10:59:44Z</time></trkpt><trkpt lat="51.950251" lon="-2.020571"><ele>250.56</ele><time>2011-07-13T10:59:53Z</time></trkpt><trkpt lat="51.950176" lon="-2.020549"><ele>251.04</ele><time>2011-07-13T11:00:01Z</time></trkpt><trkpt lat="51.950093" lon="-2.020533"><ele>250.56</ele><time>2011-07-13T11:00:10Z</time></trkpt><trkpt lat="51.950024" lon="-2.020493"><ele>251.04</ele><time>2011-07-13T11:00:18Z</time></trkpt><trkpt lat="51.949946" lon="-2.020454"><ele>251.04</ele><time>2011-07-13T11:00:27Z</time></trkpt><trkpt lat="51.949876" lon="-2.020433"><ele>250.56</ele><time>2011-07-13T11:00:35Z</time></trkpt><trkpt lat="51.949795" lon="-2.020382"><ele>250.56</ele><time>2011-07-13T11:00:44Z</time></trkpt><trkpt lat="51.949719" lon="-2.020340"><ele>250.08</ele><time>2011-07-13T11:00:52Z</time></trkpt><trkpt lat="51.949658" lon="-2.020300"><ele>249.60</ele><time>2011-07-13T11:00:59Z</time></trkpt><trkpt lat="51.949603" lon="-2.020254"><ele>250.08</ele><time>2011-07-13T11:01:06Z</time></trkpt><trkpt lat="51.949546" lon="-2.020207"><ele>250.08</ele><time>2011-07-13T11:01:13Z</time></trkpt><trkpt lat="51.949454" lon="-2.020164"><ele>250.08</ele><time>2011-07-13T11:01:23Z</time></trkpt><trkpt lat="51.949359" lon="-2.020121"><ele>250.08</ele><time>2011-07-13T11:01:34Z</time></trkpt><trkpt lat="51.949287" lon="-2.020088"><ele>248.64</ele><time>2011-07-13T11:01:41Z</time></trkpt><trkpt lat="51.949264" lon="-2.020079"><ele>249.12</ele><time>2011-07-13T11:01:44Z</time></trkpt><trkpt lat="51.949194" lon="-2.020094"><ele>250.08</ele><time>2011-07-13T11:01:52Z</time></trkpt><trkpt lat="51.949124" lon="-2.020129"><ele>251.04</ele><time>2011-07-13T11:02:00Z</time></trkpt><trkpt lat="51.949094" lon="-2.020128"><ele>251.52</ele><time>2011-07-13T11:02:05Z</time></trkpt><trkpt lat="51.949049" lon="-2.020073"><ele>250.56</ele><time>2011-07-13T11:02:13Z</time></trkpt><trkpt lat="51.948993" lon="-2.020000"><ele>249.60</ele><time>2011-07-13T11:02:21Z</time></trkpt><trkpt lat="51.948942" lon="-2.019935"><ele>249.12</ele><time>2011-07-13T11:02:28Z</time></trkpt><trkpt lat="51.948866" lon="-2.019853"><ele>247.68</ele><time>2011-07-13T11:02:37Z</time></trkpt><trkpt lat="51.948787" lon="-2.019761"><ele>247.68</ele><time>2011-07-13T11:02:46Z</time></trkpt><trkpt lat="51.948729" lon="-2.019701"><ele>247.68</ele><time>2011-07-13T11:02:53Z</time></trkpt><trkpt lat="51.948658" lon="-2.019616"><ele>248.16</ele><time>2011-07-13T11:03:02Z</time></trkpt><trkpt lat="51.948592" lon="-2.019538"><ele>248.16</ele><time>2011-07-13T11:03:10Z</time></trkpt><trkpt lat="51.948510" lon="-2.019464"><ele>247.68</ele><time>2011-07-13T11:03:19Z</time></trkpt><trkpt lat="51.948446" lon="-2.019380"><ele>247.20</ele><time>2011-07-13T11:03:27Z</time></trkpt><trkpt lat="51.948387" lon="-2.019314"><ele>246.23</ele><time>2011-07-13T11:03:35Z</time></trkpt><trkpt lat="51.948334" lon="-2.019263"><ele>246.23</ele><time>2011-07-13T11:03:42Z</time></trkpt><trkpt lat="51.948329" lon="-2.019261"><ele>246.23</ele><time>2011-07-13T11:03:43Z</time></trkpt><trkpt lat="51.948260" lon="-2.019185"><ele>246.23</ele><time>2011-07-13T11:03:53Z</time></trkpt><trkpt lat="51.948191" lon="-2.019099"><ele>247.20</ele><time>2011-07-13T11:04:02Z</time></trkpt><trkpt lat="51.948133" lon="-2.019035"><ele>246.72</ele><time>2011-07-13T11:04:09Z</time></trkpt><trkpt lat="51.948127" lon="-2.019026"><ele>246.23</ele><time>2011-07-13T11:04:10Z</time></trkpt><trkpt lat="51.948063" lon="-2.018938"><ele>247.20</ele><time>2011-07-13T11:04:19Z</time></trkpt><trkpt lat="51.948044" lon="-2.018921"><ele>247.20</ele><time>2011-07-13T11:04:21Z</time></trkpt><trkpt lat="51.947990" lon="-2.018937"><ele>247.68</ele><time>2011-07-13T11:04:28Z</time></trkpt><trkpt lat="51.947992" lon="-2.018929"><ele>248.16</ele><time>2011-07-13T11:04:32Z</time></trkpt><trkpt lat="51.947968" lon="-2.018824"><ele>248.16</ele><time>2011-07-13T11:04:39Z</time></trkpt><trkpt lat="51.947904" lon="-2.018697"><ele>248.16</ele><time>2011-07-13T11:04:49Z</time></trkpt><trkpt lat="51.947833" lon="-2.018600"><ele>247.68</ele><time>2011-07-13T11:04:59Z</time></trkpt><trkpt lat="51.947839" lon="-2.018615"><ele>247.68</ele><time>2011-07-13T11:05:08Z</time></trkpt><trkpt lat="51.947827" lon="-2.018613"><ele>247.20</ele><time>2011-07-13T11:05:20Z</time></trkpt><trkpt lat="51.947801" lon="-2.018611"><ele>247.20</ele><time>2011-07-13T11:05:23Z</time></trkpt><trkpt lat="51.947672" lon="-2.018458"><ele>246.23</ele><time>2011-07-13T11:05:36Z</time></trkpt><trkpt lat="51.947595" lon="-2.018352"><ele>246.23</ele><time>2011-07-13T11:05:44Z</time></trkpt><trkpt lat="51.947512" lon="-2.018200"><ele>245.27</ele><time>2011-07-13T11:05:55Z</time></trkpt><trkpt lat="51.947436" lon="-2.018074"><ele>244.31</ele><time>2011-07-13T11:06:05Z</time></trkpt><trkpt lat="51.947333" lon="-2.017978"><ele>244.31</ele><time>2011-07-13T11:06:16Z</time></trkpt><trkpt lat="51.947238" lon="-2.017880"><ele>243.83</ele><time>2011-07-13T11:06:27Z</time></trkpt><trkpt lat="51.947213" lon="-2.017852"><ele>243.83</ele><time>2011-07-13T11:06:30Z</time></trkpt><trkpt lat="51.947195" lon="-2.017820"><ele>243.83</ele><time>2011-07-13T11:06:33Z</time></trkpt><trkpt lat="51.947121" lon="-2.017740"><ele>243.83</ele><time>2011-07-13T11:06:43Z</time></trkpt><trkpt lat="51.947038" lon="-2.017655"><ele>242.87</ele><time>2011-07-13T11:06:52Z</time></trkpt><trkpt lat="51.946945" lon="-2.017534"><ele>242.87</ele><time>2011-07-13T11:07:03Z</time></trkpt><trkpt lat="51.946854" lon="-2.017447"><ele>243.83</ele><time>2011-07-13T11:07:13Z</time></trkpt><trkpt lat="51.946793" lon="-2.017383"><ele>244.79</ele><time>2011-07-13T11:07:20Z</time></trkpt><trkpt lat="51.946714" lon="-2.017307"><ele>243.83</ele><time>2011-07-13T11:07:30Z</time></trkpt><trkpt lat="51.946634" lon="-2.017216"><ele>243.83</ele><time>2011-07-13T11:07:40Z</time></trkpt><trkpt lat="51.946549" lon="-2.017128"><ele>244.31</ele><time>2011-07-13T11:07:51Z</time></trkpt><trkpt lat="51.946478" lon="-2.017037"><ele>244.79</ele><time>2011-07-13T11:08:01Z</time></trkpt><trkpt lat="51.946470" lon="-2.017026"><ele>245.27</ele><time>2011-07-13T11:08:02Z</time></trkpt><trkpt lat="51.946424" lon="-2.016978"><ele>244.79</ele><time>2011-07-13T11:08:07Z</time></trkpt><trkpt lat="51.946409" lon="-2.016958"><ele>244.79</ele><time>2011-07-13T11:08:09Z</time></trkpt><trkpt lat="51.946373" lon="-2.016904"><ele>244.31</ele><time>2011-07-13T11:08:14Z</time></trkpt><trkpt lat="51.946277" lon="-2.016774"><ele>244.31</ele><time>2011-07-13T11:08:25Z</time></trkpt><trkpt lat="51.946187" lon="-2.016676"><ele>243.35</ele><time>2011-07-13T11:08:35Z</time></trkpt><trkpt lat="51.946109" lon="-2.016616"><ele>243.83</ele><time>2011-07-13T11:08:43Z</time></trkpt><trkpt lat="51.946060" lon="-2.016579"><ele>244.31</ele><time>2011-07-13T11:08:48Z</time></trkpt><trkpt lat="51.945965" lon="-2.016585"><ele>244.79</ele><time>2011-07-13T11:08:57Z</time></trkpt><trkpt lat="51.945884" lon="-2.016633"><ele>245.27</ele><time>2011-07-13T11:09:06Z</time></trkpt><trkpt lat="51.945836" lon="-2.016675"><ele>245.27</ele><time>2011-07-13T11:09:13Z</time></trkpt><trkpt lat="51.945823" lon="-2.016712"><ele>245.27</ele><time>2011-07-13T11:09:39Z</time></trkpt><trkpt lat="51.945758" lon="-2.016743"><ele>244.79</ele><time>2011-07-13T11:09:48Z</time></trkpt><trkpt lat="51.945690" lon="-2.016774"><ele>244.79</ele><time>2011-07-13T11:09:56Z</time></trkpt><trkpt lat="51.945616" lon="-2.016805"><ele>245.75</ele><time>2011-07-13T11:10:05Z</time></trkpt><trkpt lat="51.945549" lon="-2.016829"><ele>245.27</ele><time>2011-07-13T11:10:13Z</time></trkpt><trkpt lat="51.945479" lon="-2.016838"><ele>245.75</ele><time>2011-07-13T11:10:21Z</time></trkpt><trkpt lat="51.945400" lon="-2.016855"><ele>246.72</ele><time>2011-07-13T11:10:29Z</time></trkpt><trkpt lat="51.945328" lon="-2.016873"><ele>248.16</ele><time>2011-07-13T11:10:38Z</time></trkpt><trkpt lat="51.945262" lon="-2.016877"><ele>248.16</ele><time>2011-07-13T11:10:46Z</time></trkpt><trkpt lat="51.945194" lon="-2.016874"><ele>248.64</ele><time>2011-07-13T11:10:54Z</time></trkpt><trkpt lat="51.945124" lon="-2.016884"><ele>248.64</ele><time>2011-07-13T11:11:02Z</time></trkpt><trkpt lat="51.945080" lon="-2.016909"><ele>249.60</ele><time>2011-07-13T11:11:11Z</time></trkpt><trkpt lat="51.945067" lon="-2.016924"><ele>250.56</ele><time>2011-07-13T11:11:18Z</time></trkpt><trkpt lat="51.945014" lon="-2.016894"><ele>252.00</ele><time>2011-07-13T11:11:25Z</time></trkpt><trkpt lat="51.944931" lon="-2.016880"><ele>252.48</ele><time>2011-07-13T11:11:35Z</time></trkpt><trkpt lat="51.944922" lon="-2.016879"><ele>252.96</ele><time>2011-07-13T11:11:36Z</time></trkpt><trkpt lat="51.944851" lon="-2.016880"><ele>253.44</ele><time>2011-07-13T11:11:44Z</time></trkpt><trkpt lat="51.944780" lon="-2.016885"><ele>253.93</ele><time>2011-07-13T11:11:53Z</time></trkpt><trkpt lat="51.944700" lon="-2.016913"><ele>254.41</ele><time>2011-07-13T11:12:01Z</time></trkpt><trkpt lat="51.944654" lon="-2.016926"><ele>253.93</ele><time>2011-07-13T11:12:06Z</time></trkpt><trkpt lat="51.944571" lon="-2.016934"><ele>252.48</ele><time>2011-07-13T11:12:14Z</time></trkpt><trkpt lat="51.944504" lon="-2.016949"><ele>252.96</ele><time>2011-07-13T11:12:20Z</time></trkpt><trkpt lat="51.944426" lon="-2.016982"><ele>253.93</ele><time>2011-07-13T11:12:30Z</time></trkpt><trkpt lat="51.944444" lon="-2.017005"><ele>253.93</ele><time>2011-07-13T11:12:37Z</time></trkpt><trkpt lat="51.944393" lon="-2.017039"><ele>254.89</ele><time>2011-07-13T11:12:45Z</time></trkpt><trkpt lat="51.944376" lon="-2.017034"><ele>254.89</ele><time>2011-07-13T11:12:47Z</time></trkpt><trkpt lat="51.944280" lon="-2.017018"><ele>257.77</ele><time>2011-07-13T11:12:58Z</time></trkpt><trkpt lat="51.944176" lon="-2.017013"><ele>260.17</ele><time>2011-07-13T11:13:10Z</time></trkpt><trkpt lat="51.944110" lon="-2.017034"><ele>260.65</ele><time>2011-07-13T11:13:19Z</time></trkpt><trkpt lat="51.944026" lon="-2.017047"><ele>261.14</ele><time>2011-07-13T11:13:29Z</time></trkpt><trkpt lat="51.943958" lon="-2.017063"><ele>259.69</ele><time>2011-07-13T11:13:38Z</time></trkpt><trkpt lat="51.943879" lon="-2.017071"><ele>258.73</ele><time>2011-07-13T11:13:47Z</time></trkpt><trkpt lat="51.943858" lon="-2.017088"><ele>258.73</ele><time>2011-07-13T11:13:49Z</time></trkpt><trkpt lat="51.943808" lon="-2.017170"><ele>259.21</ele><time>2011-07-13T11:13:56Z</time></trkpt><trkpt lat="51.943772" lon="-2.017264"><ele>260.17</ele><time>2011-07-13T11:14:03Z</time></trkpt><trkpt lat="51.943756" lon="-2.017340"><ele>261.14</ele><time>2011-07-13T11:14:11Z</time></trkpt><trkpt lat="51.943724" lon="-2.017409"><ele>261.14</ele><time>2011-07-13T11:14:18Z</time></trkpt><trkpt lat="51.943666" lon="-2.017530"><ele>261.62</ele><time>2011-07-13T11:14:28Z</time></trkpt><trkpt lat="51.943610" lon="-2.017684"><ele>260.65</ele><time>2011-07-13T11:14:40Z</time></trkpt><trkpt lat="51.943590" lon="-2.017769"><ele>260.65</ele><time>2011-07-13T11:14:47Z</time></trkpt><trkpt lat="51.943543" lon="-2.017871"><ele>260.17</ele><time>2011-07-13T11:14:57Z</time></trkpt><trkpt lat="51.943539" lon="-2.017888"><ele>259.21</ele><time>2011-07-13T11:15:08Z</time></trkpt><trkpt lat="51.943537" lon="-2.017880"><ele>258.73</ele><time>2011-07-13T11:15:23Z</time></trkpt></trkseg></trk></gpx>